<?xml version="1.0" encoding="UTF-8" standalone="no" ?>
<gpx xmlns="http://www.topografix.com/GPX/1/1" xmlns:xsi="http://www.w3.org/2001/XMLSchema-instance" xsi:schemaLocation="http://www.topografix.com/GPX/1/1 http://www.topografix.com/GPX/1/1/gpx.xsd" version="1.1" creator="VisuGPX - https://www.visugpx.com">
  <metadata>
    <name>Coupe Du Chasseron 2018 6km</name>
    <desc><![CDATA[Coupe Du Chasseron 2018 
6km                                                                                                                          ]]></desc>
  </metadata>
  <trk>
    <name><![CDATA[Coupe du Chasseron 6 Km Rocks]]></name>
    <trkseg>
      <trkpt lat="46.8291" lon="6.53817">
        <ele>1155.1999511719</ele>
        <time>2017-04-29T13:49:41.000Z</time>
      </trkpt>
      <trkpt lat="46.82911" lon="6.53819">
        <ele>1155</ele>
        <time>2017-04-29T13:49:42.000Z</time>
      </trkpt>
      <trkpt lat="46.82911" lon="6.53819">
        <ele>1155</ele>
        <time>2017-04-29T13:49:43.000Z</time>
      </trkpt>
      <trkpt lat="46.82913" lon="6.53824">
        <ele>1154.1999511719</ele>
        <time>2017-04-29T13:49:44.000Z</time>
      </trkpt>
      <trkpt lat="46.82914" lon="6.53834">
        <ele>1153.4000244141</ele>
        <time>2017-04-29T13:49:46.000Z</time>
      </trkpt>
      <trkpt lat="46.82915" lon="6.53839">
        <ele>1153.5999755859</ele>
        <time>2017-04-29T13:49:47.000Z</time>
      </trkpt>
      <trkpt lat="46.82921" lon="6.53857">
        <ele>1153.1999511719</ele>
        <time>2017-04-29T13:49:51.000Z</time>
      </trkpt>
      <trkpt lat="46.82942" lon="6.53917">
        <ele>1152.1999511719</ele>
        <time>2017-04-29T13:50:00.000Z</time>
      </trkpt>
      <trkpt lat="46.82963" lon="6.5396">
        <ele>1152.4000244141</ele>
        <time>2017-04-29T13:50:08.000Z</time>
      </trkpt>
      <trkpt lat="46.82974" lon="6.53994">
        <ele>1152.4000244141</ele>
        <time>2017-04-29T13:50:14.000Z</time>
      </trkpt>
      <trkpt lat="46.82978" lon="6.54011">
        <ele>1152.4000244141</ele>
        <time>2017-04-29T13:50:17.000Z</time>
      </trkpt>
      <trkpt lat="46.82983" lon="6.54038">
        <ele>1153.4000244141</ele>
        <time>2017-04-29T13:50:22.000Z</time>
      </trkpt>
      <trkpt lat="46.82989" lon="6.54059">
        <ele>1153.5999755859</ele>
        <time>2017-04-29T13:50:26.000Z</time>
      </trkpt>
      <trkpt lat="46.82996" lon="6.54089">
        <ele>1155</ele>
        <time>2017-04-29T13:50:33.000Z</time>
      </trkpt>
      <trkpt lat="46.83001" lon="6.54107">
        <ele>1156</ele>
        <time>2017-04-29T13:50:36.000Z</time>
      </trkpt>
      <trkpt lat="46.83001" lon="6.54107">
        <ele>1156.4000244141</ele>
        <time>2017-04-29T13:50:37.000Z</time>
      </trkpt>
      <trkpt lat="46.83013" lon="6.54141">
        <ele>1157</ele>
        <time>2017-04-29T13:50:44.000Z</time>
      </trkpt>
      <trkpt lat="46.83018" lon="6.54159">
        <ele>1157.4000244141</ele>
        <time>2017-04-29T13:50:49.000Z</time>
      </trkpt>
      <trkpt lat="46.83026" lon="6.54177">
        <ele>1158</ele>
        <time>2017-04-29T13:50:52.000Z</time>
      </trkpt>
      <trkpt lat="46.83031" lon="6.54187">
        <ele>1158.5999755859</ele>
        <time>2017-04-29T13:50:55.000Z</time>
      </trkpt>
      <trkpt lat="46.83047" lon="6.5422">
        <ele>1159.1999511719</ele>
        <time>2017-04-29T13:51:01.000Z</time>
      </trkpt>
      <trkpt lat="46.83059" lon="6.54239">
        <ele>1159.5999755859</ele>
        <time>2017-04-29T13:51:04.000Z</time>
      </trkpt>
      <trkpt lat="46.83072" lon="6.54255">
        <ele>1160.5999755859</ele>
        <time>2017-04-29T13:51:09.000Z</time>
      </trkpt>
      <trkpt lat="46.83086" lon="6.54269">
        <ele>1161.8000488281</ele>
        <time>2017-04-29T13:51:13.000Z</time>
      </trkpt>
      <trkpt lat="46.83092" lon="6.54276">
        <ele>1162.8000488281</ele>
        <time>2017-04-29T13:51:15.000Z</time>
      </trkpt>
      <trkpt lat="46.83105" lon="6.54289">
        <ele>1164</ele>
        <time>2017-04-29T13:51:18.000Z</time>
      </trkpt>
      <trkpt lat="46.83105" lon="6.54289">
        <ele>1164.1999511719</ele>
        <time>2017-04-29T13:51:19.000Z</time>
      </trkpt>
      <trkpt lat="46.83118" lon="6.54301">
        <ele>1165.4000244141</ele>
        <time>2017-04-29T13:51:22.000Z</time>
      </trkpt>
      <trkpt lat="46.83124" lon="6.54307">
        <ele>1166.4000244141</ele>
        <time>2017-04-29T13:51:24.000Z</time>
      </trkpt>
      <trkpt lat="46.83131" lon="6.54312">
        <ele>1167.5999755859</ele>
        <time>2017-04-29T13:51:27.000Z</time>
      </trkpt>
      <trkpt lat="46.8314" lon="6.54319">
        <ele>1168.1999511719</ele>
        <time>2017-04-29T13:51:29.000Z</time>
      </trkpt>
      <trkpt lat="46.83143" lon="6.54321">
        <ele>1168.5999755859</ele>
        <time>2017-04-29T13:51:30.000Z</time>
      </trkpt>
      <trkpt lat="46.83149" lon="6.54325">
        <ele>1169.8000488281</ele>
        <time>2017-04-29T13:51:33.000Z</time>
      </trkpt>
      <trkpt lat="46.83158" lon="6.54331">
        <ele>1170.8000488281</ele>
        <time>2017-04-29T13:51:35.000Z</time>
      </trkpt>
      <trkpt lat="46.83167" lon="6.54337">
        <ele>1172.4000244141</ele>
        <time>2017-04-29T13:51:38.000Z</time>
      </trkpt>
      <trkpt lat="46.83179" lon="6.54341">
        <ele>1173.5999755859</ele>
        <time>2017-04-29T13:51:42.000Z</time>
      </trkpt>
      <trkpt lat="46.83185" lon="6.54344">
        <ele>1174.1999511719</ele>
        <time>2017-04-29T13:51:44.000Z</time>
      </trkpt>
      <trkpt lat="46.83191" lon="6.54347">
        <ele>1175</ele>
        <time>2017-04-29T13:51:46.000Z</time>
      </trkpt>
      <trkpt lat="46.83197" lon="6.5435">
        <ele>1176.1999511719</ele>
        <time>2017-04-29T13:51:49.000Z</time>
      </trkpt>
      <trkpt lat="46.8321" lon="6.54355">
        <ele>1177.1999511719</ele>
        <time>2017-04-29T13:51:52.000Z</time>
      </trkpt>
      <trkpt lat="46.83213" lon="6.54357">
        <ele>1177.5999755859</ele>
        <time>2017-04-29T13:51:53.000Z</time>
      </trkpt>
      <trkpt lat="46.83222" lon="6.54362">
        <ele>1178.8000488281</ele>
        <time>2017-04-29T13:51:57.000Z</time>
      </trkpt>
      <trkpt lat="46.83228" lon="6.54365">
        <ele>1179.1999511719</ele>
        <time>2017-04-29T13:51:58.000Z</time>
      </trkpt>
      <trkpt lat="46.83234" lon="6.54368">
        <ele>1180</ele>
        <time>2017-04-29T13:52:01.000Z</time>
      </trkpt>
      <trkpt lat="46.83247" lon="6.54375">
        <ele>1181</ele>
        <time>2017-04-29T13:52:04.000Z</time>
      </trkpt>
      <trkpt lat="46.83253" lon="6.5438">
        <ele>1181.8000488281</ele>
        <time>2017-04-29T13:52:06.000Z</time>
      </trkpt>
      <trkpt lat="46.83259" lon="6.54385">
        <ele>1182.1999511719</ele>
        <time>2017-04-29T13:52:08.000Z</time>
      </trkpt>
      <trkpt lat="46.83268" lon="6.54393">
        <ele>1183.1999511719</ele>
        <time>2017-04-29T13:52:11.000Z</time>
      </trkpt>
      <trkpt lat="46.83277" lon="6.54403">
        <ele>1183.8000488281</ele>
        <time>2017-04-29T13:52:14.000Z</time>
      </trkpt>
      <trkpt lat="46.83282" lon="6.5441">
        <ele>1184.4000244141</ele>
        <time>2017-04-29T13:52:16.000Z</time>
      </trkpt>
      <trkpt lat="46.83288" lon="6.54415">
        <ele>1185.5999755859</ele>
        <time>2017-04-29T13:52:19.000Z</time>
      </trkpt>
      <trkpt lat="46.83293" lon="6.54414">
        <ele>1186</ele>
        <time>2017-04-29T13:52:20.000Z</time>
      </trkpt>
      <trkpt lat="46.83296" lon="6.5441">
        <ele>1187</ele>
        <time>2017-04-29T13:52:22.000Z</time>
      </trkpt>
      <trkpt lat="46.83297" lon="6.54405">
        <ele>1188.1999511719</ele>
        <time>2017-04-29T13:52:24.000Z</time>
      </trkpt>
      <trkpt lat="46.83297" lon="6.54405">
        <ele>1188.5999755859</ele>
        <time>2017-04-29T13:52:25.000Z</time>
      </trkpt>
      <trkpt lat="46.83297" lon="6.54398">
        <ele>1189.5999755859</ele>
        <time>2017-04-29T13:52:27.000Z</time>
      </trkpt>
      <trkpt lat="46.83295" lon="6.54383">
        <ele>1190.4000244141</ele>
        <time>2017-04-29T13:52:31.000Z</time>
      </trkpt>
      <trkpt lat="46.8329" lon="6.54359">
        <ele>1191.5999755859</ele>
        <time>2017-04-29T13:52:36.000Z</time>
      </trkpt>
      <trkpt lat="46.83289" lon="6.5435">
        <ele>1192</ele>
        <time>2017-04-29T13:52:39.000Z</time>
      </trkpt>
      <trkpt lat="46.83289" lon="6.54332">
        <ele>1192.5999755859</ele>
        <time>2017-04-29T13:52:43.000Z</time>
      </trkpt>
      <trkpt lat="46.83289" lon="6.54309">
        <ele>1193.5999755859</ele>
        <time>2017-04-29T13:52:47.000Z</time>
      </trkpt>
      <trkpt lat="46.83289" lon="6.54297">
        <ele>1195.1999511719</ele>
        <time>2017-04-29T13:52:50.000Z</time>
      </trkpt>
      <trkpt lat="46.83289" lon="6.54282">
        <ele>1196.4000244141</ele>
        <time>2017-04-29T13:52:54.000Z</time>
      </trkpt>
      <trkpt lat="46.83289" lon="6.54282">
        <ele>1196.8000488281</ele>
        <time>2017-04-29T13:52:55.000Z</time>
      </trkpt>
      <trkpt lat="46.8329" lon="6.54274">
        <ele>1197.4000244141</ele>
        <time>2017-04-29T13:52:57.000Z</time>
      </trkpt>
      <trkpt lat="46.8329" lon="6.54259">
        <ele>1198.4000244141</ele>
        <time>2017-04-29T13:53:00.000Z</time>
      </trkpt>
      <trkpt lat="46.8329" lon="6.54259">
        <ele>1198.8000488281</ele>
        <time>2017-04-29T13:53:01.000Z</time>
      </trkpt>
      <trkpt lat="46.83293" lon="6.54253">
        <ele>1199.4000244141</ele>
        <time>2017-04-29T13:53:02.000Z</time>
      </trkpt>
      <trkpt lat="46.83293" lon="6.54253">
        <ele>1199.5999755859</ele>
        <time>2017-04-29T13:53:03.000Z</time>
      </trkpt>
      <trkpt lat="46.83296" lon="6.54248">
        <ele>1200</ele>
        <time>2017-04-29T13:53:04.000Z</time>
      </trkpt>
      <trkpt lat="46.83298" lon="6.54247">
        <ele>1200.4000244141</ele>
        <time>2017-04-29T13:53:05.000Z</time>
      </trkpt>
      <trkpt lat="46.833" lon="6.54248">
        <ele>1200.8000488281</ele>
        <time>2017-04-29T13:53:06.000Z</time>
      </trkpt>
      <trkpt lat="46.83304" lon="6.54252">
        <ele>1201.8000488281</ele>
        <time>2017-04-29T13:53:09.000Z</time>
      </trkpt>
      <trkpt lat="46.83308" lon="6.54257">
        <ele>1202</ele>
        <time>2017-04-29T13:53:10.000Z</time>
      </trkpt>
      <trkpt lat="46.83313" lon="6.54269">
        <ele>1203</ele>
        <time>2017-04-29T13:53:15.000Z</time>
      </trkpt>
      <trkpt lat="46.83326" lon="6.54292">
        <ele>1204.1999511719</ele>
        <time>2017-04-29T13:53:22.000Z</time>
      </trkpt>
      <trkpt lat="46.83328" lon="6.54295">
        <ele>1204.4000244141</ele>
        <time>2017-04-29T13:53:23.000Z</time>
      </trkpt>
      <trkpt lat="46.83335" lon="6.54304">
        <ele>1205.1999511719</ele>
        <time>2017-04-29T13:53:26.000Z</time>
      </trkpt>
      <trkpt lat="46.83343" lon="6.54311">
        <ele>1205.4000244141</ele>
        <time>2017-04-29T13:53:29.000Z</time>
      </trkpt>
      <trkpt lat="46.83351" lon="6.54318">
        <ele>1206.5999755859</ele>
        <time>2017-04-29T13:53:32.000Z</time>
      </trkpt>
      <trkpt lat="46.83359" lon="6.54325">
        <ele>1208</ele>
        <time>2017-04-29T13:53:35.000Z</time>
      </trkpt>
      <trkpt lat="46.83365" lon="6.54333">
        <ele>1209.1999511719</ele>
        <time>2017-04-29T13:53:38.000Z</time>
      </trkpt>
      <trkpt lat="46.83372" lon="6.54342">
        <ele>1209.8000488281</ele>
        <time>2017-04-29T13:53:41.000Z</time>
      </trkpt>
      <trkpt lat="46.8338" lon="6.54352">
        <ele>1210.1999511719</ele>
        <time>2017-04-29T13:53:45.000Z</time>
      </trkpt>
      <trkpt lat="46.83391" lon="6.54366">
        <ele>1211.1999511719</ele>
        <time>2017-04-29T13:53:48.000Z</time>
      </trkpt>
      <trkpt lat="46.83391" lon="6.54366">
        <ele>1211.1999511719</ele>
        <time>2017-04-29T13:53:49.000Z</time>
      </trkpt>
      <trkpt lat="46.83417" lon="6.54401">
        <ele>1212.1999511719</ele>
        <time>2017-04-29T13:53:58.000Z</time>
      </trkpt>
      <trkpt lat="46.83435" lon="6.54423">
        <ele>1213.4000244141</ele>
        <time>2017-04-29T13:54:05.000Z</time>
      </trkpt>
      <trkpt lat="46.83442" lon="6.54425">
        <ele>1214.4000244141</ele>
        <time>2017-04-29T13:54:08.000Z</time>
      </trkpt>
      <trkpt lat="46.83446" lon="6.54424">
        <ele>1215.5999755859</ele>
        <time>2017-04-29T13:54:10.000Z</time>
      </trkpt>
      <trkpt lat="46.83448" lon="6.54422">
        <ele>1215.8000488281</ele>
        <time>2017-04-29T13:54:11.000Z</time>
      </trkpt>
      <trkpt lat="46.83447" lon="6.54413">
        <ele>1216.8000488281</ele>
        <time>2017-04-29T13:54:14.000Z</time>
      </trkpt>
      <trkpt lat="46.83447" lon="6.54413">
        <ele>1217</ele>
        <time>2017-04-29T13:54:15.000Z</time>
      </trkpt>
      <trkpt lat="46.83444" lon="6.54397">
        <ele>1217.5999755859</ele>
        <time>2017-04-29T13:54:18.000Z</time>
      </trkpt>
      <trkpt lat="46.83442" lon="6.5439">
        <ele>1218.8000488281</ele>
        <time>2017-04-29T13:54:21.000Z</time>
      </trkpt>
      <trkpt lat="46.83438" lon="6.54374">
        <ele>1220</ele>
        <time>2017-04-29T13:54:25.000Z</time>
      </trkpt>
      <trkpt lat="46.83436" lon="6.54366">
        <ele>1220.8000488281</ele>
        <time>2017-04-29T13:54:27.000Z</time>
      </trkpt>
      <trkpt lat="46.83434" lon="6.54354">
        <ele>1221.4000244141</ele>
        <time>2017-04-29T13:54:29.000Z</time>
      </trkpt>
      <trkpt lat="46.83431" lon="6.54342">
        <ele>1222.4000244141</ele>
        <time>2017-04-29T13:54:32.000Z</time>
      </trkpt>
      <trkpt lat="46.83431" lon="6.54342">
        <ele>1222.5999755859</ele>
        <time>2017-04-29T13:54:33.000Z</time>
      </trkpt>
      <trkpt lat="46.83427" lon="6.54329">
        <ele>1223.4000244141</ele>
        <time>2017-04-29T13:54:35.000Z</time>
      </trkpt>
      <trkpt lat="46.83423" lon="6.54315">
        <ele>1224.5999755859</ele>
        <time>2017-04-29T13:54:38.000Z</time>
      </trkpt>
      <trkpt lat="46.83423" lon="6.54315">
        <ele>1225</ele>
        <time>2017-04-29T13:54:39.000Z</time>
      </trkpt>
      <trkpt lat="46.83419" lon="6.54299">
        <ele>1225.5999755859</ele>
        <time>2017-04-29T13:54:42.000Z</time>
      </trkpt>
      <trkpt lat="46.83417" lon="6.5429">
        <ele>1226</ele>
        <time>2017-04-29T13:54:45.000Z</time>
      </trkpt>
      <trkpt lat="46.83414" lon="6.54275">
        <ele>1226.8000488281</ele>
        <time>2017-04-29T13:54:47.000Z</time>
      </trkpt>
      <trkpt lat="46.83411" lon="6.54261">
        <ele>1228</ele>
        <time>2017-04-29T13:54:51.000Z</time>
      </trkpt>
      <trkpt lat="46.83407" lon="6.54241">
        <ele>1229</ele>
        <time>2017-04-29T13:54:54.000Z</time>
      </trkpt>
      <trkpt lat="46.83407" lon="6.54241">
        <ele>1229.4000244141</ele>
        <time>2017-04-29T13:54:55.000Z</time>
      </trkpt>
      <trkpt lat="46.83403" lon="6.54217">
        <ele>1230.5999755859</ele>
        <time>2017-04-29T13:54:59.000Z</time>
      </trkpt>
      <trkpt lat="46.83401" lon="6.54202">
        <ele>1231.5999755859</ele>
        <time>2017-04-29T13:55:03.000Z</time>
      </trkpt>
      <trkpt lat="46.83399" lon="6.54184">
        <ele>1233</ele>
        <time>2017-04-29T13:55:06.000Z</time>
      </trkpt>
      <trkpt lat="46.83398" lon="6.54166">
        <ele>1234.1999511719</ele>
        <time>2017-04-29T13:55:10.000Z</time>
      </trkpt>
      <trkpt lat="46.83404" lon="6.54149">
        <ele>1235.4000244141</ele>
        <time>2017-04-29T13:55:14.000Z</time>
      </trkpt>
      <trkpt lat="46.83404" lon="6.54149">
        <ele>1235.8000488281</ele>
        <time>2017-04-29T13:55:15.000Z</time>
      </trkpt>
      <trkpt lat="46.83408" lon="6.54144">
        <ele>1236.1999511719</ele>
        <time>2017-04-29T13:55:16.000Z</time>
      </trkpt>
      <trkpt lat="46.8341" lon="6.54143">
        <ele>1236.4000244141</ele>
        <time>2017-04-29T13:55:17.000Z</time>
      </trkpt>
      <trkpt lat="46.83412" lon="6.54143">
        <ele>1237.1999511719</ele>
        <time>2017-04-29T13:55:19.000Z</time>
      </trkpt>
      <trkpt lat="46.83417" lon="6.54144">
        <ele>1238</ele>
        <time>2017-04-29T13:55:20.000Z</time>
      </trkpt>
      <trkpt lat="46.83423" lon="6.54148">
        <ele>1239.4000244141</ele>
        <time>2017-04-29T13:55:23.000Z</time>
      </trkpt>
      <trkpt lat="46.83424" lon="6.5415">
        <ele>1240.1999511719</ele>
        <time>2017-04-29T13:55:25.000Z</time>
      </trkpt>
      <trkpt lat="46.83427" lon="6.54156">
        <ele>1240.5999755859</ele>
        <time>2017-04-29T13:55:26.000Z</time>
      </trkpt>
      <trkpt lat="46.83432" lon="6.54165">
        <ele>1241.5999755859</ele>
        <time>2017-04-29T13:55:30.000Z</time>
      </trkpt>
      <trkpt lat="46.83432" lon="6.54165">
        <ele>1241.5999755859</ele>
        <time>2017-04-29T13:55:31.000Z</time>
      </trkpt>
      <trkpt lat="46.83439" lon="6.54179">
        <ele>1242.8000488281</ele>
        <time>2017-04-29T13:55:35.000Z</time>
      </trkpt>
      <trkpt lat="46.83444" lon="6.54186">
        <ele>1244.1999511719</ele>
        <time>2017-04-29T13:55:38.000Z</time>
      </trkpt>
      <trkpt lat="46.83451" lon="6.54196">
        <ele>1245.4000244141</ele>
        <time>2017-04-29T13:55:42.000Z</time>
      </trkpt>
      <trkpt lat="46.83454" lon="6.542">
        <ele>1246</ele>
        <time>2017-04-29T13:55:44.000Z</time>
      </trkpt>
      <trkpt lat="46.83456" lon="6.54207">
        <ele>1246.4000244141</ele>
        <time>2017-04-29T13:55:46.000Z</time>
      </trkpt>
      <trkpt lat="46.83459" lon="6.54213">
        <ele>1246.4000244141</ele>
        <time>2017-04-29T13:55:49.000Z</time>
      </trkpt>
      <trkpt lat="46.83471" lon="6.54233">
        <ele>1246.5999755859</ele>
        <time>2017-04-29T13:55:54.000Z</time>
      </trkpt>
      <trkpt lat="46.83483" lon="6.54256">
        <ele>1247</ele>
        <time>2017-04-29T13:56:00.000Z</time>
      </trkpt>
      <trkpt lat="46.8349" lon="6.54271">
        <ele>1247.5999755859</ele>
        <time>2017-04-29T13:56:05.000Z</time>
      </trkpt>
      <trkpt lat="46.83492" lon="6.54273">
        <ele>1248</ele>
        <time>2017-04-29T13:56:06.000Z</time>
      </trkpt>
      <trkpt lat="46.83494" lon="6.54277">
        <ele>1248.8000488281</ele>
        <time>2017-04-29T13:56:09.000Z</time>
      </trkpt>
      <trkpt lat="46.83498" lon="6.54287">
        <ele>1250</ele>
        <time>2017-04-29T13:56:12.000Z</time>
      </trkpt>
      <trkpt lat="46.83498" lon="6.54287">
        <ele>1250.1999511719</ele>
        <time>2017-04-29T13:56:13.000Z</time>
      </trkpt>
      <trkpt lat="46.83506" lon="6.54304">
        <ele>1251</ele>
        <time>2017-04-29T13:56:19.000Z</time>
      </trkpt>
      <trkpt lat="46.83509" lon="6.54308">
        <ele>1251</ele>
        <time>2017-04-29T13:56:20.000Z</time>
      </trkpt>
      <trkpt lat="46.83519" lon="6.54321">
        <ele>1252.1999511719</ele>
        <time>2017-04-29T13:56:26.000Z</time>
      </trkpt>
      <trkpt lat="46.83533" lon="6.54336">
        <ele>1253.1999511719</ele>
        <time>2017-04-29T13:56:32.000Z</time>
      </trkpt>
      <trkpt lat="46.83533" lon="6.54336">
        <ele>1253.1999511719</ele>
        <time>2017-04-29T13:56:33.000Z</time>
      </trkpt>
      <trkpt lat="46.83547" lon="6.54344">
        <ele>1254</ele>
        <time>2017-04-29T13:56:38.000Z</time>
      </trkpt>
      <trkpt lat="46.83547" lon="6.54344">
        <ele>1254.1999511719</ele>
        <time>2017-04-29T13:56:39.000Z</time>
      </trkpt>
      <trkpt lat="46.83551" lon="6.54345">
        <ele>1254.4000244141</ele>
        <time>2017-04-29T13:56:40.000Z</time>
      </trkpt>
      <trkpt lat="46.8356" lon="6.54347">
        <ele>1255.1999511719</ele>
        <time>2017-04-29T13:56:44.000Z</time>
      </trkpt>
      <trkpt lat="46.83572" lon="6.54348">
        <ele>1255.1999511719</ele>
        <time>2017-04-29T13:56:48.000Z</time>
      </trkpt>
      <trkpt lat="46.83587" lon="6.54355">
        <ele>1255.5999755859</ele>
        <time>2017-04-29T13:56:53.000Z</time>
      </trkpt>
      <trkpt lat="46.8359" lon="6.54356">
        <ele>1255.5999755859</ele>
        <time>2017-04-29T13:56:55.000Z</time>
      </trkpt>
      <trkpt lat="46.83607" lon="6.54365">
        <ele>1256.4000244141</ele>
        <time>2017-04-29T13:56:59.000Z</time>
      </trkpt>
      <trkpt lat="46.83609" lon="6.54367">
        <ele>1256.8000488281</ele>
        <time>2017-04-29T13:57:00.000Z</time>
      </trkpt>
      <trkpt lat="46.83617" lon="6.54376">
        <ele>1257.8000488281</ele>
        <time>2017-04-29T13:57:04.000Z</time>
      </trkpt>
      <trkpt lat="46.83623" lon="6.5438">
        <ele>1258</ele>
        <time>2017-04-29T13:57:06.000Z</time>
      </trkpt>
      <trkpt lat="46.83635" lon="6.54392">
        <ele>1259</ele>
        <time>2017-04-29T13:57:11.000Z</time>
      </trkpt>
      <trkpt lat="46.83637" lon="6.54395">
        <ele>1259.1999511719</ele>
        <time>2017-04-29T13:57:12.000Z</time>
      </trkpt>
      <trkpt lat="46.83645" lon="6.54416">
        <ele>1260</ele>
        <time>2017-04-29T13:57:19.000Z</time>
      </trkpt>
      <trkpt lat="46.83658" lon="6.54434">
        <ele>1261.4000244141</ele>
        <time>2017-04-29T13:57:25.000Z</time>
      </trkpt>
      <trkpt lat="46.83671" lon="6.54445">
        <ele>1262.5999755859</ele>
        <time>2017-04-29T13:57:30.000Z</time>
      </trkpt>
      <trkpt lat="46.83676" lon="6.54449">
        <ele>1262.8000488281</ele>
        <time>2017-04-29T13:57:32.000Z</time>
      </trkpt>
      <trkpt lat="46.83683" lon="6.54458">
        <ele>1263.8000488281</ele>
        <time>2017-04-29T13:57:37.000Z</time>
      </trkpt>
      <trkpt lat="46.83692" lon="6.54468">
        <ele>1264.4000244141</ele>
        <time>2017-04-29T13:57:40.000Z</time>
      </trkpt>
      <trkpt lat="46.83701" lon="6.54477">
        <ele>1264.8000488281</ele>
        <time>2017-04-29T13:57:44.000Z</time>
      </trkpt>
      <trkpt lat="46.8371" lon="6.54485">
        <ele>1265.8000488281</ele>
        <time>2017-04-29T13:57:49.000Z</time>
      </trkpt>
      <trkpt lat="46.83715" lon="6.54488">
        <ele>1266.1999511719</ele>
        <time>2017-04-29T13:57:50.000Z</time>
      </trkpt>
      <trkpt lat="46.83724" lon="6.54494">
        <ele>1267.5999755859</ele>
        <time>2017-04-29T13:57:54.000Z</time>
      </trkpt>
      <trkpt lat="46.83728" lon="6.54497">
        <ele>1267.8000488281</ele>
        <time>2017-04-29T13:57:56.000Z</time>
      </trkpt>
      <trkpt lat="46.83734" lon="6.54503">
        <ele>1268.5999755859</ele>
        <time>2017-04-29T13:57:59.000Z</time>
      </trkpt>
      <trkpt lat="46.83741" lon="6.5451">
        <ele>1269.4000244141</ele>
        <time>2017-04-29T13:58:03.000Z</time>
      </trkpt>
      <trkpt lat="46.83761" lon="6.54526">
        <ele>1269.8000488281</ele>
        <time>2017-04-29T13:58:10.000Z</time>
      </trkpt>
      <trkpt lat="46.83788" lon="6.54535">
        <ele>1270</ele>
        <time>2017-04-29T13:58:19.000Z</time>
      </trkpt>
      <trkpt lat="46.83806" lon="6.54541">
        <ele>1270.8000488281</ele>
        <time>2017-04-29T13:58:23.000Z</time>
      </trkpt>
      <trkpt lat="46.83816" lon="6.54548">
        <ele>1270.4000244141</ele>
        <time>2017-04-29T13:58:27.000Z</time>
      </trkpt>
      <trkpt lat="46.83833" lon="6.54568">
        <ele>1271.4000244141</ele>
        <time>2017-04-29T13:58:33.000Z</time>
      </trkpt>
      <trkpt lat="46.83839" lon="6.5458">
        <ele>1271.5999755859</ele>
        <time>2017-04-29T13:58:35.000Z</time>
      </trkpt>
      <trkpt lat="46.83844" lon="6.54595">
        <ele>1272.1999511719</ele>
        <time>2017-04-29T13:58:39.000Z</time>
      </trkpt>
      <trkpt lat="46.83857" lon="6.5462">
        <ele>1272.4000244141</ele>
        <time>2017-04-29T13:58:44.000Z</time>
      </trkpt>
      <trkpt lat="46.8388" lon="6.54647">
        <ele>1272.5999755859</ele>
        <time>2017-04-29T13:58:52.000Z</time>
      </trkpt>
      <trkpt lat="46.83885" lon="6.54653">
        <ele>1272.8000488281</ele>
        <time>2017-04-29T13:58:54.000Z</time>
      </trkpt>
      <trkpt lat="46.83894" lon="6.54663">
        <ele>1274</ele>
        <time>2017-04-29T13:58:58.000Z</time>
      </trkpt>
      <trkpt lat="46.83896" lon="6.54665">
        <ele>1274.4000244141</ele>
        <time>2017-04-29T13:58:59.000Z</time>
      </trkpt>
      <trkpt lat="46.83899" lon="6.54667">
        <ele>1275</ele>
        <time>2017-04-29T13:59:01.000Z</time>
      </trkpt>
      <trkpt lat="46.83911" lon="6.54678">
        <ele>1276.1999511719</ele>
        <time>2017-04-29T13:59:06.000Z</time>
      </trkpt>
      <trkpt lat="46.83915" lon="6.54682">
        <ele>1276.4000244141</ele>
        <time>2017-04-29T13:59:08.000Z</time>
      </trkpt>
      <trkpt lat="46.83921" lon="6.54688">
        <ele>1277</ele>
        <time>2017-04-29T13:59:11.000Z</time>
      </trkpt>
      <trkpt lat="46.83926" lon="6.54694">
        <ele>1278.1999511719</ele>
        <time>2017-04-29T13:59:15.000Z</time>
      </trkpt>
      <trkpt lat="46.83929" lon="6.54699">
        <ele>1278.5999755859</ele>
        <time>2017-04-29T13:59:16.000Z</time>
      </trkpt>
      <trkpt lat="46.83937" lon="6.54708">
        <ele>1279.4000244141</ele>
        <time>2017-04-29T13:59:20.000Z</time>
      </trkpt>
      <trkpt lat="46.83945" lon="6.54716">
        <ele>1280.1999511719</ele>
        <time>2017-04-29T13:59:25.000Z</time>
      </trkpt>
      <trkpt lat="46.83949" lon="6.5472">
        <ele>1280.5999755859</ele>
        <time>2017-04-29T13:59:26.000Z</time>
      </trkpt>
      <trkpt lat="46.83957" lon="6.54726">
        <ele>1281.8000488281</ele>
        <time>2017-04-29T13:59:30.000Z</time>
      </trkpt>
      <trkpt lat="46.83965" lon="6.54731">
        <ele>1283</ele>
        <time>2017-04-29T13:59:34.000Z</time>
      </trkpt>
      <trkpt lat="46.8397" lon="6.54733">
        <ele>1283.4000244141</ele>
        <time>2017-04-29T13:59:36.000Z</time>
      </trkpt>
      <trkpt lat="46.83975" lon="6.54736">
        <ele>1284</ele>
        <time>2017-04-29T13:59:39.000Z</time>
      </trkpt>
      <trkpt lat="46.8398" lon="6.5474">
        <ele>1285</ele>
        <time>2017-04-29T13:59:43.000Z</time>
      </trkpt>
      <trkpt lat="46.83984" lon="6.54743">
        <ele>1285.1999511719</ele>
        <time>2017-04-29T13:59:44.000Z</time>
      </trkpt>
      <trkpt lat="46.83992" lon="6.54747">
        <ele>1286.4000244141</ele>
        <time>2017-04-29T13:59:49.000Z</time>
      </trkpt>
      <trkpt lat="46.84001" lon="6.5475">
        <ele>1287.4000244141</ele>
        <time>2017-04-29T13:59:53.000Z</time>
      </trkpt>
      <trkpt lat="46.84003" lon="6.54752">
        <ele>1288.1999511719</ele>
        <time>2017-04-29T13:59:55.000Z</time>
      </trkpt>
      <trkpt lat="46.84006" lon="6.54753">
        <ele>1288.4000244141</ele>
        <time>2017-04-29T13:59:56.000Z</time>
      </trkpt>
      <trkpt lat="46.84006" lon="6.54753">
        <ele>1288.5999755859</ele>
        <time>2017-04-29T13:59:57.000Z</time>
      </trkpt>
      <trkpt lat="46.84011" lon="6.54756">
        <ele>1289.1999511719</ele>
        <time>2017-04-29T13:59:59.000Z</time>
      </trkpt>
      <trkpt lat="46.84012" lon="6.54757">
        <ele>1289.5999755859</ele>
        <time>2017-04-29T14:00:01.000Z</time>
      </trkpt>
      <trkpt lat="46.84021" lon="6.54762">
        <ele>1290.4000244141</ele>
        <time>2017-04-29T14:00:06.000Z</time>
      </trkpt>
      <trkpt lat="46.84024" lon="6.54763">
        <ele>1290.8000488281</ele>
        <time>2017-04-29T14:00:08.000Z</time>
      </trkpt>
      <trkpt lat="46.8403" lon="6.54765">
        <ele>1292</ele>
        <time>2017-04-29T14:00:11.000Z</time>
      </trkpt>
      <trkpt lat="46.84032" lon="6.54765">
        <ele>1292.1999511719</ele>
        <time>2017-04-29T14:00:12.000Z</time>
      </trkpt>
      <trkpt lat="46.84037" lon="6.54767">
        <ele>1293</ele>
        <time>2017-04-29T14:00:15.000Z</time>
      </trkpt>
      <trkpt lat="46.84048" lon="6.54769">
        <ele>1294.1999511719</ele>
        <time>2017-04-29T14:00:20.000Z</time>
      </trkpt>
      <trkpt lat="46.84058" lon="6.54774">
        <ele>1295.1999511719</ele>
        <time>2017-04-29T14:00:24.000Z</time>
      </trkpt>
      <trkpt lat="46.84066" lon="6.54778">
        <ele>1296.4000244141</ele>
        <time>2017-04-29T14:00:28.000Z</time>
      </trkpt>
      <trkpt lat="46.84069" lon="6.5478">
        <ele>1297</ele>
        <time>2017-04-29T14:00:30.000Z</time>
      </trkpt>
      <trkpt lat="46.84073" lon="6.54783">
        <ele>1297.5999755859</ele>
        <time>2017-04-29T14:00:32.000Z</time>
      </trkpt>
      <trkpt lat="46.84079" lon="6.54787">
        <ele>1298.5999755859</ele>
        <time>2017-04-29T14:00:36.000Z</time>
      </trkpt>
      <trkpt lat="46.84084" lon="6.54792">
        <ele>1299.1999511719</ele>
        <time>2017-04-29T14:00:39.000Z</time>
      </trkpt>
      <trkpt lat="46.84087" lon="6.54796">
        <ele>1299.8000488281</ele>
        <time>2017-04-29T14:00:41.000Z</time>
      </trkpt>
      <trkpt lat="46.84091" lon="6.54805">
        <ele>1301.1999511719</ele>
        <time>2017-04-29T14:00:45.000Z</time>
      </trkpt>
      <trkpt lat="46.84098" lon="6.54818">
        <ele>1302.1999511719</ele>
        <time>2017-04-29T14:00:51.000Z</time>
      </trkpt>
      <trkpt lat="46.84101" lon="6.54823">
        <ele>1302.4000244141</ele>
        <time>2017-04-29T14:00:53.000Z</time>
      </trkpt>
      <trkpt lat="46.84106" lon="6.54844">
        <ele>1302.8000488281</ele>
        <time>2017-04-29T14:01:01.000Z</time>
      </trkpt>
      <trkpt lat="46.84116" lon="6.54869">
        <ele>1301.5999755859</ele>
        <time>2017-04-29T14:01:06.000Z</time>
      </trkpt>
      <trkpt lat="46.84119" lon="6.54877">
        <ele>1300.5999755859</ele>
        <time>2017-04-29T14:01:08.000Z</time>
      </trkpt>
      <trkpt lat="46.84123" lon="6.54893">
        <ele>1299.5999755859</ele>
        <time>2017-04-29T14:01:12.000Z</time>
      </trkpt>
      <trkpt lat="46.84122" lon="6.54909">
        <ele>1298.4000244141</ele>
        <time>2017-04-29T14:01:15.000Z</time>
      </trkpt>
      <trkpt lat="46.84122" lon="6.54916">
        <ele>1298</ele>
        <time>2017-04-29T14:01:16.000Z</time>
      </trkpt>
      <trkpt lat="46.84123" lon="6.54928">
        <ele>1297</ele>
        <time>2017-04-29T14:01:18.000Z</time>
      </trkpt>
      <trkpt lat="46.84123" lon="6.54928">
        <ele>1296.1999511719</ele>
        <time>2017-04-29T14:01:19.000Z</time>
      </trkpt>
      <trkpt lat="46.84122" lon="6.54938">
        <ele>1295.8000488281</ele>
        <time>2017-04-29T14:01:20.000Z</time>
      </trkpt>
      <trkpt lat="46.8412" lon="6.54945">
        <ele>1294.8000488281</ele>
        <time>2017-04-29T14:01:22.000Z</time>
      </trkpt>
      <trkpt lat="46.84119" lon="6.54946">
        <ele>1294.5999755859</ele>
        <time>2017-04-29T14:01:23.000Z</time>
      </trkpt>
      <trkpt lat="46.84117" lon="6.54953">
        <ele>1293.8000488281</ele>
        <time>2017-04-29T14:01:26.000Z</time>
      </trkpt>
      <trkpt lat="46.84117" lon="6.54953">
        <ele>1293.4000244141</ele>
        <time>2017-04-29T14:01:27.000Z</time>
      </trkpt>
      <trkpt lat="46.84118" lon="6.54957">
        <ele>1293</ele>
        <time>2017-04-29T14:01:28.000Z</time>
      </trkpt>
      <trkpt lat="46.8412" lon="6.54962">
        <ele>1292.1999511719</ele>
        <time>2017-04-29T14:01:30.000Z</time>
      </trkpt>
      <trkpt lat="46.84121" lon="6.54968">
        <ele>1292</ele>
        <time>2017-04-29T14:01:33.000Z</time>
      </trkpt>
      <trkpt lat="46.84121" lon="6.54986">
        <ele>1290.8000488281</ele>
        <time>2017-04-29T14:01:36.000Z</time>
      </trkpt>
      <trkpt lat="46.84122" lon="6.54999">
        <ele>1290.1999511719</ele>
        <time>2017-04-29T14:01:39.000Z</time>
      </trkpt>
      <trkpt lat="46.84126" lon="6.55007">
        <ele>1290.1999511719</ele>
        <time>2017-04-29T14:01:41.000Z</time>
      </trkpt>
      <trkpt lat="46.84136" lon="6.5503">
        <ele>1289</ele>
        <time>2017-04-29T14:01:46.000Z</time>
      </trkpt>
      <trkpt lat="46.84138" lon="6.55036">
        <ele>1288.4000244141</ele>
        <time>2017-04-29T14:01:47.000Z</time>
      </trkpt>
      <trkpt lat="46.84139" lon="6.55042">
        <ele>1288</ele>
        <time>2017-04-29T14:01:48.000Z</time>
      </trkpt>
      <trkpt lat="46.84139" lon="6.55042">
        <ele>1287.4000244141</ele>
        <time>2017-04-29T14:01:49.000Z</time>
      </trkpt>
      <trkpt lat="46.84141" lon="6.55064">
        <ele>1286.8000488281</ele>
        <time>2017-04-29T14:01:51.000Z</time>
      </trkpt>
      <trkpt lat="46.84142" lon="6.55072">
        <ele>1285.5999755859</ele>
        <time>2017-04-29T14:01:52.000Z</time>
      </trkpt>
      <trkpt lat="46.84143" lon="6.5508">
        <ele>1284.4000244141</ele>
        <time>2017-04-29T14:01:53.000Z</time>
      </trkpt>
      <trkpt lat="46.84147" lon="6.55085">
        <ele>1283</ele>
        <time>2017-04-29T14:01:54.000Z</time>
      </trkpt>
      <trkpt lat="46.84154" lon="6.55096">
        <ele>1281.5999755859</ele>
        <time>2017-04-29T14:01:56.000Z</time>
      </trkpt>
      <trkpt lat="46.84154" lon="6.55096">
        <ele>1281</ele>
        <time>2017-04-29T14:01:57.000Z</time>
      </trkpt>
      <trkpt lat="46.84161" lon="6.55109">
        <ele>1281.1999511719</ele>
        <time>2017-04-29T14:01:59.000Z</time>
      </trkpt>
      <trkpt lat="46.84161" lon="6.55114">
        <ele>1281.1999511719</ele>
        <time>2017-04-29T14:02:00.000Z</time>
      </trkpt>
      <trkpt lat="46.84167" lon="6.55132">
        <ele>1281.4000244141</ele>
        <time>2017-04-29T14:02:04.000Z</time>
      </trkpt>
      <trkpt lat="46.84168" lon="6.55142">
        <ele>1281</ele>
        <time>2017-04-29T14:02:05.000Z</time>
      </trkpt>
      <trkpt lat="46.84171" lon="6.55146">
        <ele>1280.4000244141</ele>
        <time>2017-04-29T14:02:07.000Z</time>
      </trkpt>
      <trkpt lat="46.84181" lon="6.55159">
        <ele>1279.5999755859</ele>
        <time>2017-04-29T14:02:09.000Z</time>
      </trkpt>
      <trkpt lat="46.84184" lon="6.55162">
        <ele>1279.1999511719</ele>
        <time>2017-04-29T14:02:10.000Z</time>
      </trkpt>
      <trkpt lat="46.84189" lon="6.55169">
        <ele>1279</ele>
        <time>2017-04-29T14:02:13.000Z</time>
      </trkpt>
      <trkpt lat="46.84198" lon="6.55182">
        <ele>1279.5999755859</ele>
        <time>2017-04-29T14:02:17.000Z</time>
      </trkpt>
      <trkpt lat="46.84202" lon="6.55189">
        <ele>1280</ele>
        <time>2017-04-29T14:02:20.000Z</time>
      </trkpt>
      <trkpt lat="46.84206" lon="6.55191">
        <ele>1280.1999511719</ele>
        <time>2017-04-29T14:02:22.000Z</time>
      </trkpt>
      <trkpt lat="46.84209" lon="6.55195">
        <ele>1280.5999755859</ele>
        <time>2017-04-29T14:02:24.000Z</time>
      </trkpt>
      <trkpt lat="46.84212" lon="6.55199">
        <ele>1280.5999755859</ele>
        <time>2017-04-29T14:02:27.000Z</time>
      </trkpt>
      <trkpt lat="46.84217" lon="6.55204">
        <ele>1279.8000488281</ele>
        <time>2017-04-29T14:02:31.000Z</time>
      </trkpt>
      <trkpt lat="46.84219" lon="6.55209">
        <ele>1279.8000488281</ele>
        <time>2017-04-29T14:02:32.000Z</time>
      </trkpt>
      <trkpt lat="46.84222" lon="6.55217">
        <ele>1279</ele>
        <time>2017-04-29T14:02:37.000Z</time>
      </trkpt>
      <trkpt lat="46.8423" lon="6.55227">
        <ele>1278.5999755859</ele>
        <time>2017-04-29T14:02:41.000Z</time>
      </trkpt>
      <trkpt lat="46.84233" lon="6.55228">
        <ele>1277.8000488281</ele>
        <time>2017-04-29T14:02:43.000Z</time>
      </trkpt>
      <trkpt lat="46.84239" lon="6.55236">
        <ele>1277.5999755859</ele>
        <time>2017-04-29T14:02:45.000Z</time>
      </trkpt>
      <trkpt lat="46.84247" lon="6.55242">
        <ele>1276.4000244141</ele>
        <time>2017-04-29T14:02:49.000Z</time>
      </trkpt>
      <trkpt lat="46.84253" lon="6.55249">
        <ele>1276</ele>
        <time>2017-04-29T14:02:53.000Z</time>
      </trkpt>
      <trkpt lat="46.84258" lon="6.55256">
        <ele>1276.1999511719</ele>
        <time>2017-04-29T14:03:04.000Z</time>
      </trkpt>
      <trkpt lat="46.84261" lon="6.55258">
        <ele>1276</ele>
        <time>2017-04-29T14:03:11.000Z</time>
      </trkpt>
      <trkpt lat="46.84268" lon="6.55256">
        <ele>1277</ele>
        <time>2017-04-29T14:03:19.000Z</time>
      </trkpt>
      <trkpt lat="46.84267" lon="6.55256">
        <ele>1277.5999755859</ele>
        <time>2017-04-29T14:03:23.000Z</time>
      </trkpt>
      <trkpt lat="46.8427" lon="6.55258">
        <ele>1278</ele>
        <time>2017-04-29T14:03:28.000Z</time>
      </trkpt>
      <trkpt lat="46.84278" lon="6.55259">
        <ele>1278</ele>
        <time>2017-04-29T14:03:36.000Z</time>
      </trkpt>
      <trkpt lat="46.84287" lon="6.55261">
        <ele>1277.8000488281</ele>
        <time>2017-04-29T14:03:44.000Z</time>
      </trkpt>
      <trkpt lat="46.84294" lon="6.55262">
        <ele>1278</ele>
        <time>2017-04-29T14:03:51.000Z</time>
      </trkpt>
      <trkpt lat="46.84303" lon="6.55264">
        <ele>1278.5999755859</ele>
        <time>2017-04-29T14:04:00.000Z</time>
      </trkpt>
      <trkpt lat="46.84307" lon="6.55266">
        <ele>1278.5999755859</ele>
        <time>2017-04-29T14:04:04.000Z</time>
      </trkpt>
      <trkpt lat="46.84309" lon="6.55268">
        <ele>1279</ele>
        <time>2017-04-29T14:04:09.000Z</time>
      </trkpt>
      <trkpt lat="46.84313" lon="6.55272">
        <ele>1279</ele>
        <time>2017-04-29T14:04:15.000Z</time>
      </trkpt>
      <trkpt lat="46.84313" lon="6.55273">
        <ele>1278.8000488281</ele>
        <time>2017-04-29T14:04:16.000Z</time>
      </trkpt>
      <trkpt lat="46.84314" lon="6.55273">
        <ele>1278.8000488281</ele>
        <time>2017-04-29T14:04:17.000Z</time>
      </trkpt>
      <trkpt lat="46.84316" lon="6.55274">
        <ele>1278.8000488281</ele>
        <time>2017-04-29T14:04:21.000Z</time>
      </trkpt>
      <trkpt lat="46.84318" lon="6.55278">
        <ele>1278.8000488281</ele>
        <time>2017-04-29T14:04:27.000Z</time>
      </trkpt>
      <trkpt lat="46.8432" lon="6.55278">
        <ele>1278.8000488281</ele>
        <time>2017-04-29T14:04:28.000Z</time>
      </trkpt>
      <trkpt lat="46.84327" lon="6.55282">
        <ele>1278.8000488281</ele>
        <time>2017-04-29T14:04:33.000Z</time>
      </trkpt>
      <trkpt lat="46.84335" lon="6.5529">
        <ele>1278.8000488281</ele>
        <time>2017-04-29T14:04:38.000Z</time>
      </trkpt>
      <trkpt lat="46.84344" lon="6.553">
        <ele>1277.5999755859</ele>
        <time>2017-04-29T14:04:42.000Z</time>
      </trkpt>
      <trkpt lat="46.84344" lon="6.553">
        <ele>1277.4000244141</ele>
        <time>2017-04-29T14:04:43.000Z</time>
      </trkpt>
      <trkpt lat="46.84346" lon="6.55306">
        <ele>1277.1999511719</ele>
        <time>2017-04-29T14:04:44.000Z</time>
      </trkpt>
      <trkpt lat="46.84351" lon="6.55313">
        <ele>1276.1999511719</ele>
        <time>2017-04-29T14:04:47.000Z</time>
      </trkpt>
      <trkpt lat="46.84353" lon="6.55315">
        <ele>1275.5999755859</ele>
        <time>2017-04-29T14:04:48.000Z</time>
      </trkpt>
      <trkpt lat="46.84357" lon="6.55321">
        <ele>1274.4000244141</ele>
        <time>2017-04-29T14:04:50.000Z</time>
      </trkpt>
      <trkpt lat="46.84359" lon="6.55327">
        <ele>1273</ele>
        <time>2017-04-29T14:04:52.000Z</time>
      </trkpt>
      <trkpt lat="46.84361" lon="6.55332">
        <ele>1272.5999755859</ele>
        <time>2017-04-29T14:04:53.000Z</time>
      </trkpt>
      <trkpt lat="46.84363" lon="6.55337">
        <ele>1271.5999755859</ele>
        <time>2017-04-29T14:04:55.000Z</time>
      </trkpt>
      <trkpt lat="46.84365" lon="6.55346">
        <ele>1271.1999511719</ele>
        <time>2017-04-29T14:04:56.000Z</time>
      </trkpt>
      <trkpt lat="46.84365" lon="6.55346">
        <ele>1270.8000488281</ele>
        <time>2017-04-29T14:04:57.000Z</time>
      </trkpt>
      <trkpt lat="46.84369" lon="6.55356">
        <ele>1270.5999755859</ele>
        <time>2017-04-29T14:04:58.000Z</time>
      </trkpt>
      <trkpt lat="46.8437" lon="6.55364">
        <ele>1269.8000488281</ele>
        <time>2017-04-29T14:05:00.000Z</time>
      </trkpt>
      <trkpt lat="46.8437" lon="6.55364">
        <ele>1269</ele>
        <time>2017-04-29T14:05:01.000Z</time>
      </trkpt>
      <trkpt lat="46.84378" lon="6.55372">
        <ele>1268</ele>
        <time>2017-04-29T14:05:04.000Z</time>
      </trkpt>
      <trkpt lat="46.8438" lon="6.55381">
        <ele>1267.1999511719</ele>
        <time>2017-04-29T14:05:06.000Z</time>
      </trkpt>
      <trkpt lat="46.8438" lon="6.55381">
        <ele>1266.5999755859</ele>
        <time>2017-04-29T14:05:07.000Z</time>
      </trkpt>
      <trkpt lat="46.84386" lon="6.55389">
        <ele>1265.4000244141</ele>
        <time>2017-04-29T14:05:09.000Z</time>
      </trkpt>
      <trkpt lat="46.84388" lon="6.55394">
        <ele>1264.5999755859</ele>
        <time>2017-04-29T14:05:11.000Z</time>
      </trkpt>
      <trkpt lat="46.84389" lon="6.55395">
        <ele>1264.1999511719</ele>
        <time>2017-04-29T14:05:13.000Z</time>
      </trkpt>
      <trkpt lat="46.84391" lon="6.55399">
        <ele>1264.4000244141</ele>
        <time>2017-04-29T14:05:17.000Z</time>
      </trkpt>
      <trkpt lat="46.84398" lon="6.554">
        <ele>1264.8000488281</ele>
        <time>2017-04-29T14:05:24.000Z</time>
      </trkpt>
      <trkpt lat="46.84399" lon="6.554">
        <ele>1265.1999511719</ele>
        <time>2017-04-29T14:05:26.000Z</time>
      </trkpt>
      <trkpt lat="46.84403" lon="6.55402">
        <ele>1265.4000244141</ele>
        <time>2017-04-29T14:05:32.000Z</time>
      </trkpt>
      <trkpt lat="46.84404" lon="6.55403">
        <ele>1265.4000244141</ele>
        <time>2017-04-29T14:05:34.000Z</time>
      </trkpt>
      <trkpt lat="46.84405" lon="6.55408">
        <ele>1265.4000244141</ele>
        <time>2017-04-29T14:05:37.000Z</time>
      </trkpt>
      <trkpt lat="46.84408" lon="6.55421">
        <ele>1265.1999511719</ele>
        <time>2017-04-29T14:05:42.000Z</time>
      </trkpt>
      <trkpt lat="46.84414" lon="6.55438">
        <ele>1265.1999511719</ele>
        <time>2017-04-29T14:05:48.000Z</time>
      </trkpt>
      <trkpt lat="46.84415" lon="6.55459">
        <ele>1263.8000488281</ele>
        <time>2017-04-29T14:05:53.000Z</time>
      </trkpt>
      <trkpt lat="46.84415" lon="6.55461">
        <ele>1263.1999511719</ele>
        <time>2017-04-29T14:05:54.000Z</time>
      </trkpt>
      <trkpt lat="46.84415" lon="6.55461">
        <ele>1262.4000244141</ele>
        <time>2017-04-29T14:05:55.000Z</time>
      </trkpt>
      <trkpt lat="46.84416" lon="6.55468">
        <ele>1261.5999755859</ele>
        <time>2017-04-29T14:05:56.000Z</time>
      </trkpt>
      <trkpt lat="46.84416" lon="6.55468">
        <ele>1260.8000488281</ele>
        <time>2017-04-29T14:05:57.000Z</time>
      </trkpt>
      <trkpt lat="46.84413" lon="6.55477">
        <ele>1259.8000488281</ele>
        <time>2017-04-29T14:05:58.000Z</time>
      </trkpt>
      <trkpt lat="46.8441" lon="6.55482">
        <ele>1258.1999511719</ele>
        <time>2017-04-29T14:05:59.000Z</time>
      </trkpt>
      <trkpt lat="46.84408" lon="6.55486">
        <ele>1257.4000244141</ele>
        <time>2017-04-29T14:06:00.000Z</time>
      </trkpt>
      <trkpt lat="46.84408" lon="6.55486">
        <ele>1256.5999755859</ele>
        <time>2017-04-29T14:06:01.000Z</time>
      </trkpt>
      <trkpt lat="46.844" lon="6.55498">
        <ele>1255.1999511719</ele>
        <time>2017-04-29T14:06:04.000Z</time>
      </trkpt>
      <trkpt lat="46.84399" lon="6.55502">
        <ele>1254.8000488281</ele>
        <time>2017-04-29T14:06:05.000Z</time>
      </trkpt>
      <trkpt lat="46.84398" lon="6.55506">
        <ele>1254.1999511719</ele>
        <time>2017-04-29T14:06:06.000Z</time>
      </trkpt>
      <trkpt lat="46.84397" lon="6.55512">
        <ele>1252.5999755859</ele>
        <time>2017-04-29T14:06:08.000Z</time>
      </trkpt>
      <trkpt lat="46.84395" lon="6.55517">
        <ele>1251.4000244141</ele>
        <time>2017-04-29T14:06:10.000Z</time>
      </trkpt>
      <trkpt lat="46.84393" lon="6.55523">
        <ele>1250.4000244141</ele>
        <time>2017-04-29T14:06:11.000Z</time>
      </trkpt>
      <trkpt lat="46.84393" lon="6.5553">
        <ele>1249.8000488281</ele>
        <time>2017-04-29T14:06:12.000Z</time>
      </trkpt>
      <trkpt lat="46.84393" lon="6.5553">
        <ele>1248.4000244141</ele>
        <time>2017-04-29T14:06:13.000Z</time>
      </trkpt>
      <trkpt lat="46.84393" lon="6.55544">
        <ele>1247.5999755859</ele>
        <time>2017-04-29T14:06:14.000Z</time>
      </trkpt>
      <trkpt lat="46.84391" lon="6.55553">
        <ele>1247.1999511719</ele>
        <time>2017-04-29T14:06:15.000Z</time>
      </trkpt>
      <trkpt lat="46.84392" lon="6.55568">
        <ele>1246.5999755859</ele>
        <time>2017-04-29T14:06:17.000Z</time>
      </trkpt>
      <trkpt lat="46.84392" lon="6.55575">
        <ele>1245.8000488281</ele>
        <time>2017-04-29T14:06:18.000Z</time>
      </trkpt>
      <trkpt lat="46.84392" lon="6.55575">
        <ele>1244.5999755859</ele>
        <time>2017-04-29T14:06:19.000Z</time>
      </trkpt>
      <trkpt lat="46.84393" lon="6.55589">
        <ele>1244</ele>
        <time>2017-04-29T14:06:20.000Z</time>
      </trkpt>
      <trkpt lat="46.84395" lon="6.55596">
        <ele>1243</ele>
        <time>2017-04-29T14:06:21.000Z</time>
      </trkpt>
      <trkpt lat="46.84397" lon="6.55607">
        <ele>1241.4000244141</ele>
        <time>2017-04-29T14:06:23.000Z</time>
      </trkpt>
      <trkpt lat="46.84396" lon="6.55614">
        <ele>1240</ele>
        <time>2017-04-29T14:06:25.000Z</time>
      </trkpt>
      <trkpt lat="46.84396" lon="6.55631">
        <ele>1238.5999755859</ele>
        <time>2017-04-29T14:06:26.000Z</time>
      </trkpt>
      <trkpt lat="46.84396" lon="6.55631">
        <ele>1237.1999511719</ele>
        <time>2017-04-29T14:06:27.000Z</time>
      </trkpt>
      <trkpt lat="46.84396" lon="6.55647">
        <ele>1235.8000488281</ele>
        <time>2017-04-29T14:06:28.000Z</time>
      </trkpt>
      <trkpt lat="46.84396" lon="6.55656">
        <ele>1234.4000244141</ele>
        <time>2017-04-29T14:06:29.000Z</time>
      </trkpt>
      <trkpt lat="46.84397" lon="6.55663">
        <ele>1232.5999755859</ele>
        <time>2017-04-29T14:06:31.000Z</time>
      </trkpt>
      <trkpt lat="46.84398" lon="6.55676">
        <ele>1231.8000488281</ele>
        <time>2017-04-29T14:06:32.000Z</time>
      </trkpt>
      <trkpt lat="46.84398" lon="6.55676">
        <ele>1231</ele>
        <time>2017-04-29T14:06:33.000Z</time>
      </trkpt>
      <trkpt lat="46.84401" lon="6.5569">
        <ele>1230</ele>
        <time>2017-04-29T14:06:34.000Z</time>
      </trkpt>
      <trkpt lat="46.84403" lon="6.55697">
        <ele>1228.5999755859</ele>
        <time>2017-04-29T14:06:35.000Z</time>
      </trkpt>
      <trkpt lat="46.84405" lon="6.55704">
        <ele>1227.8000488281</ele>
        <time>2017-04-29T14:06:36.000Z</time>
      </trkpt>
      <trkpt lat="46.84405" lon="6.55704">
        <ele>1227</ele>
        <time>2017-04-29T14:06:37.000Z</time>
      </trkpt>
      <trkpt lat="46.84411" lon="6.55715">
        <ele>1226.1999511719</ele>
        <time>2017-04-29T14:06:38.000Z</time>
      </trkpt>
      <trkpt lat="46.84414" lon="6.55721">
        <ele>1225.8000488281</ele>
        <time>2017-04-29T14:06:39.000Z</time>
      </trkpt>
      <trkpt lat="46.84418" lon="6.55729">
        <ele>1225</ele>
        <time>2017-04-29T14:06:41.000Z</time>
      </trkpt>
      <trkpt lat="46.84419" lon="6.55731">
        <ele>1224.5999755859</ele>
        <time>2017-04-29T14:06:42.000Z</time>
      </trkpt>
      <trkpt lat="46.84417" lon="6.55735">
        <ele>1224.1999511719</ele>
        <time>2017-04-29T14:06:44.000Z</time>
      </trkpt>
      <trkpt lat="46.84411" lon="6.55744">
        <ele>1223.4000244141</ele>
        <time>2017-04-29T14:06:47.000Z</time>
      </trkpt>
      <trkpt lat="46.84411" lon="6.55748">
        <ele>1222.4000244141</ele>
        <time>2017-04-29T14:06:49.000Z</time>
      </trkpt>
      <trkpt lat="46.84411" lon="6.55759">
        <ele>1221</ele>
        <time>2017-04-29T14:06:51.000Z</time>
      </trkpt>
      <trkpt lat="46.84412" lon="6.55761">
        <ele>1220.4000244141</ele>
        <time>2017-04-29T14:06:52.000Z</time>
      </trkpt>
      <trkpt lat="46.84411" lon="6.55764">
        <ele>1219.5999755859</ele>
        <time>2017-04-29T14:06:53.000Z</time>
      </trkpt>
      <trkpt lat="46.84411" lon="6.55769">
        <ele>1218.8000488281</ele>
        <time>2017-04-29T14:06:54.000Z</time>
      </trkpt>
      <trkpt lat="46.84407" lon="6.55776">
        <ele>1217.4000244141</ele>
        <time>2017-04-29T14:06:56.000Z</time>
      </trkpt>
      <trkpt lat="46.84407" lon="6.55776">
        <ele>1216.8000488281</ele>
        <time>2017-04-29T14:06:57.000Z</time>
      </trkpt>
      <trkpt lat="46.84402" lon="6.55776">
        <ele>1215.8000488281</ele>
        <time>2017-04-29T14:06:58.000Z</time>
      </trkpt>
      <trkpt lat="46.84398" lon="6.55773">
        <ele>1214.8000488281</ele>
        <time>2017-04-29T14:07:00.000Z</time>
      </trkpt>
      <trkpt lat="46.84398" lon="6.55773">
        <ele>1214.8000488281</ele>
        <time>2017-04-29T14:07:01.000Z</time>
      </trkpt>
      <trkpt lat="46.84391" lon="6.55769">
        <ele>1214.8000488281</ele>
        <time>2017-04-29T14:07:02.000Z</time>
      </trkpt>
      <trkpt lat="46.84384" lon="6.55757">
        <ele>1215</ele>
        <time>2017-04-29T14:07:05.000Z</time>
      </trkpt>
      <trkpt lat="46.84375" lon="6.55745">
        <ele>1215.1999511719</ele>
        <time>2017-04-29T14:07:08.000Z</time>
      </trkpt>
      <trkpt lat="46.84371" lon="6.55742">
        <ele>1215</ele>
        <time>2017-04-29T14:07:09.000Z</time>
      </trkpt>
      <trkpt lat="46.84362" lon="6.55737">
        <ele>1214.5999755859</ele>
        <time>2017-04-29T14:07:11.000Z</time>
      </trkpt>
      <trkpt lat="46.84341" lon="6.55722">
        <ele>1214.5999755859</ele>
        <time>2017-04-29T14:07:16.000Z</time>
      </trkpt>
      <trkpt lat="46.84336" lon="6.55721">
        <ele>1214.5999755859</ele>
        <time>2017-04-29T14:07:17.000Z</time>
      </trkpt>
      <trkpt lat="46.84313" lon="6.55698">
        <ele>1214.4000244141</ele>
        <time>2017-04-29T14:07:24.000Z</time>
      </trkpt>
      <trkpt lat="46.84308" lon="6.55698">
        <ele>1214.1999511719</ele>
        <time>2017-04-29T14:07:26.000Z</time>
      </trkpt>
      <trkpt lat="46.84308" lon="6.55698">
        <ele>1214.1999511719</ele>
        <time>2017-04-29T14:07:27.000Z</time>
      </trkpt>
      <trkpt lat="46.84307" lon="6.5571">
        <ele>1213.5999755859</ele>
        <time>2017-04-29T14:07:31.000Z</time>
      </trkpt>
      <trkpt lat="46.84307" lon="6.55717">
        <ele>1213.1999511719</ele>
        <time>2017-04-29T14:07:32.000Z</time>
      </trkpt>
      <trkpt lat="46.84307" lon="6.55723">
        <ele>1212.4000244141</ele>
        <time>2017-04-29T14:07:34.000Z</time>
      </trkpt>
      <trkpt lat="46.84307" lon="6.55726">
        <ele>1211.8000488281</ele>
        <time>2017-04-29T14:07:35.000Z</time>
      </trkpt>
      <trkpt lat="46.84306" lon="6.55729">
        <ele>1211.4000244141</ele>
        <time>2017-04-29T14:07:36.000Z</time>
      </trkpt>
      <trkpt lat="46.84307" lon="6.55736">
        <ele>1210.1999511719</ele>
        <time>2017-04-29T14:07:38.000Z</time>
      </trkpt>
      <trkpt lat="46.84312" lon="6.55744">
        <ele>1208.8000488281</ele>
        <time>2017-04-29T14:07:41.000Z</time>
      </trkpt>
      <trkpt lat="46.84314" lon="6.55747">
        <ele>1207.8000488281</ele>
        <time>2017-04-29T14:07:43.000Z</time>
      </trkpt>
      <trkpt lat="46.84317" lon="6.55754">
        <ele>1206.5999755859</ele>
        <time>2017-04-29T14:07:46.000Z</time>
      </trkpt>
      <trkpt lat="46.84319" lon="6.55757">
        <ele>1206.1999511719</ele>
        <time>2017-04-29T14:07:47.000Z</time>
      </trkpt>
      <trkpt lat="46.8432" lon="6.5576">
        <ele>1205.4000244141</ele>
        <time>2017-04-29T14:07:49.000Z</time>
      </trkpt>
      <trkpt lat="46.8432" lon="6.55765">
        <ele>1205</ele>
        <time>2017-04-29T14:07:50.000Z</time>
      </trkpt>
      <trkpt lat="46.84319" lon="6.55766">
        <ele>1204.4000244141</ele>
        <time>2017-04-29T14:07:51.000Z</time>
      </trkpt>
      <trkpt lat="46.84318" lon="6.55766">
        <ele>1204.1999511719</ele>
        <time>2017-04-29T14:07:52.000Z</time>
      </trkpt>
      <trkpt lat="46.84316" lon="6.55764">
        <ele>1203.5999755859</ele>
        <time>2017-04-29T14:07:54.000Z</time>
      </trkpt>
      <trkpt lat="46.84313" lon="6.55761">
        <ele>1203</ele>
        <time>2017-04-29T14:07:56.000Z</time>
      </trkpt>
      <trkpt lat="46.84307" lon="6.55751">
        <ele>1202.4000244141</ele>
        <time>2017-04-29T14:08:00.000Z</time>
      </trkpt>
      <trkpt lat="46.84307" lon="6.55751">
        <ele>1202.4000244141</ele>
        <time>2017-04-29T14:08:01.000Z</time>
      </trkpt>
      <trkpt lat="46.843" lon="6.55739">
        <ele>1202.4000244141</ele>
        <time>2017-04-29T14:08:04.000Z</time>
      </trkpt>
      <trkpt lat="46.84295" lon="6.55733">
        <ele>1202.8000488281</ele>
        <time>2017-04-29T14:08:06.000Z</time>
      </trkpt>
      <trkpt lat="46.84279" lon="6.55711">
        <ele>1202.8000488281</ele>
        <time>2017-04-29T14:08:12.000Z</time>
      </trkpt>
      <trkpt lat="46.84271" lon="6.55699">
        <ele>1202.1999511719</ele>
        <time>2017-04-29T14:08:15.000Z</time>
      </trkpt>
      <trkpt lat="46.84265" lon="6.55692">
        <ele>1201.8000488281</ele>
        <time>2017-04-29T14:08:17.000Z</time>
      </trkpt>
      <trkpt lat="46.84256" lon="6.55673">
        <ele>1203</ele>
        <time>2017-04-29T14:08:22.000Z</time>
      </trkpt>
      <trkpt lat="46.84257" lon="6.5567">
        <ele>1203.1999511719</ele>
        <time>2017-04-29T14:08:23.000Z</time>
      </trkpt>
      <trkpt lat="46.84256" lon="6.55667">
        <ele>1204.4000244141</ele>
        <time>2017-04-29T14:08:25.000Z</time>
      </trkpt>
      <trkpt lat="46.84254" lon="6.55659">
        <ele>1205.5999755859</ele>
        <time>2017-04-29T14:08:27.000Z</time>
      </trkpt>
      <trkpt lat="46.84252" lon="6.55651">
        <ele>1206.4000244141</ele>
        <time>2017-04-29T14:08:29.000Z</time>
      </trkpt>
      <trkpt lat="46.8425" lon="6.5565">
        <ele>1206.8000488281</ele>
        <time>2017-04-29T14:08:30.000Z</time>
      </trkpt>
      <trkpt lat="46.84249" lon="6.55646">
        <ele>1208.1999511719</ele>
        <time>2017-04-29T14:08:32.000Z</time>
      </trkpt>
      <trkpt lat="46.84249" lon="6.55645">
        <ele>1208.8000488281</ele>
        <time>2017-04-29T14:08:34.000Z</time>
      </trkpt>
      <trkpt lat="46.84248" lon="6.55643">
        <ele>1209.4000244141</ele>
        <time>2017-04-29T14:08:37.000Z</time>
      </trkpt>
      <trkpt lat="46.84249" lon="6.55643">
        <ele>1209.5999755859</ele>
        <time>2017-04-29T14:08:41.000Z</time>
      </trkpt>
      <trkpt lat="46.84246" lon="6.55637">
        <ele>1209.8000488281</ele>
        <time>2017-04-29T14:08:48.000Z</time>
      </trkpt>
      <trkpt lat="46.8424" lon="6.55633">
        <ele>1210.1999511719</ele>
        <time>2017-04-29T14:08:56.000Z</time>
      </trkpt>
      <trkpt lat="46.84231" lon="6.55638">
        <ele>1208.8000488281</ele>
        <time>2017-04-29T14:09:01.000Z</time>
      </trkpt>
      <trkpt lat="46.84225" lon="6.55638">
        <ele>1208.1999511719</ele>
        <time>2017-04-29T14:09:02.000Z</time>
      </trkpt>
      <trkpt lat="46.8422" lon="6.55637">
        <ele>1207</ele>
        <time>2017-04-29T14:09:04.000Z</time>
      </trkpt>
      <trkpt lat="46.84218" lon="6.5564">
        <ele>1206</ele>
        <time>2017-04-29T14:09:07.000Z</time>
      </trkpt>
      <trkpt lat="46.84218" lon="6.55643">
        <ele>1205.4000244141</ele>
        <time>2017-04-29T14:09:08.000Z</time>
      </trkpt>
      <trkpt lat="46.84218" lon="6.55645">
        <ele>1204.8000488281</ele>
        <time>2017-04-29T14:09:09.000Z</time>
      </trkpt>
      <trkpt lat="46.84218" lon="6.55646">
        <ele>1203.8000488281</ele>
        <time>2017-04-29T14:09:13.000Z</time>
      </trkpt>
      <trkpt lat="46.84216" lon="6.55648">
        <ele>1204.1999511719</ele>
        <time>2017-04-29T14:09:20.000Z</time>
      </trkpt>
      <trkpt lat="46.84211" lon="6.55654">
        <ele>1203</ele>
        <time>2017-04-29T14:09:29.000Z</time>
      </trkpt>
      <trkpt lat="46.84208" lon="6.55656">
        <ele>1202.8000488281</ele>
        <time>2017-04-29T14:09:31.000Z</time>
      </trkpt>
      <trkpt lat="46.84199" lon="6.55661">
        <ele>1202.5999755859</ele>
        <time>2017-04-29T14:09:32.000Z</time>
      </trkpt>
      <trkpt lat="46.84186" lon="6.55659">
        <ele>1201</ele>
        <time>2017-04-29T14:09:34.000Z</time>
      </trkpt>
      <trkpt lat="46.84179" lon="6.55658">
        <ele>1199.8000488281</ele>
        <time>2017-04-29T14:09:35.000Z</time>
      </trkpt>
      <trkpt lat="46.84172" lon="6.55657">
        <ele>1198.1999511719</ele>
        <time>2017-04-29T14:09:36.000Z</time>
      </trkpt>
      <trkpt lat="46.84172" lon="6.55657">
        <ele>1197.1999511719</ele>
        <time>2017-04-29T14:09:37.000Z</time>
      </trkpt>
      <trkpt lat="46.84159" lon="6.55657">
        <ele>1196.4000244141</ele>
        <time>2017-04-29T14:09:38.000Z</time>
      </trkpt>
      <trkpt lat="46.84153" lon="6.55658">
        <ele>1196</ele>
        <time>2017-04-29T14:09:39.000Z</time>
      </trkpt>
      <trkpt lat="46.84141" lon="6.55664">
        <ele>1195.1999511719</ele>
        <time>2017-04-29T14:09:41.000Z</time>
      </trkpt>
      <trkpt lat="46.84136" lon="6.55668">
        <ele>1194</ele>
        <time>2017-04-29T14:09:42.000Z</time>
      </trkpt>
      <trkpt lat="46.84136" lon="6.55668">
        <ele>1193</ele>
        <time>2017-04-29T14:09:43.000Z</time>
      </trkpt>
      <trkpt lat="46.84126" lon="6.55673">
        <ele>1192.1999511719</ele>
        <time>2017-04-29T14:09:44.000Z</time>
      </trkpt>
      <trkpt lat="46.84121" lon="6.55675">
        <ele>1191.1999511719</ele>
        <time>2017-04-29T14:09:45.000Z</time>
      </trkpt>
      <trkpt lat="46.84116" lon="6.55676">
        <ele>1190</ele>
        <time>2017-04-29T14:09:46.000Z</time>
      </trkpt>
      <trkpt lat="46.84107" lon="6.55677">
        <ele>1189</ele>
        <time>2017-04-29T14:09:49.000Z</time>
      </trkpt>
      <trkpt lat="46.84098" lon="6.5568">
        <ele>1188.8000488281</ele>
        <time>2017-04-29T14:09:50.000Z</time>
      </trkpt>
      <trkpt lat="46.84083" lon="6.55691">
        <ele>1188.4000244141</ele>
        <time>2017-04-29T14:09:53.000Z</time>
      </trkpt>
      <trkpt lat="46.84079" lon="6.55694">
        <ele>1187.8000488281</ele>
        <time>2017-04-29T14:09:54.000Z</time>
      </trkpt>
      <trkpt lat="46.84073" lon="6.55699">
        <ele>1187.5999755859</ele>
        <time>2017-04-29T14:09:57.000Z</time>
      </trkpt>
      <trkpt lat="46.84067" lon="6.55705">
        <ele>1189</ele>
        <time>2017-04-29T14:10:01.000Z</time>
      </trkpt>
      <trkpt lat="46.8406" lon="6.55714">
        <ele>1189</ele>
        <time>2017-04-29T14:10:04.000Z</time>
      </trkpt>
      <trkpt lat="46.84061" lon="6.55725">
        <ele>1188.8000488281</ele>
        <time>2017-04-29T14:10:08.000Z</time>
      </trkpt>
      <trkpt lat="46.84061" lon="6.5573">
        <ele>1188.5999755859</ele>
        <time>2017-04-29T14:10:10.000Z</time>
      </trkpt>
      <trkpt lat="46.8406" lon="6.55733">
        <ele>1188.1999511719</ele>
        <time>2017-04-29T14:10:13.000Z</time>
      </trkpt>
      <trkpt lat="46.84058" lon="6.5574">
        <ele>1188</ele>
        <time>2017-04-29T14:10:15.000Z</time>
      </trkpt>
      <trkpt lat="46.84056" lon="6.55746">
        <ele>1187.1999511719</ele>
        <time>2017-04-29T14:10:17.000Z</time>
      </trkpt>
      <trkpt lat="46.84056" lon="6.55748">
        <ele>1187.1999511719</ele>
        <time>2017-04-29T14:10:18.000Z</time>
      </trkpt>
      <trkpt lat="46.84056" lon="6.55748">
        <ele>1186.8000488281</ele>
        <time>2017-04-29T14:10:19.000Z</time>
      </trkpt>
      <trkpt lat="46.84057" lon="6.55761">
        <ele>1186</ele>
        <time>2017-04-29T14:10:22.000Z</time>
      </trkpt>
      <trkpt lat="46.84059" lon="6.55768">
        <ele>1185.5999755859</ele>
        <time>2017-04-29T14:10:24.000Z</time>
      </trkpt>
      <trkpt lat="46.84059" lon="6.5578">
        <ele>1184.8000488281</ele>
        <time>2017-04-29T14:10:27.000Z</time>
      </trkpt>
      <trkpt lat="46.84058" lon="6.55797">
        <ele>1184.4000244141</ele>
        <time>2017-04-29T14:10:28.000Z</time>
      </trkpt>
      <trkpt lat="46.84054" lon="6.55811">
        <ele>1182.8000488281</ele>
        <time>2017-04-29T14:10:30.000Z</time>
      </trkpt>
      <trkpt lat="46.84054" lon="6.55811">
        <ele>1182</ele>
        <time>2017-04-29T14:10:31.000Z</time>
      </trkpt>
      <trkpt lat="46.84048" lon="6.5582">
        <ele>1181.8000488281</ele>
        <time>2017-04-29T14:10:32.000Z</time>
      </trkpt>
      <trkpt lat="46.8404" lon="6.5584">
        <ele>1180.8000488281</ele>
        <time>2017-04-29T14:10:35.000Z</time>
      </trkpt>
      <trkpt lat="46.84038" lon="6.55849">
        <ele>1179.4000244141</ele>
        <time>2017-04-29T14:10:36.000Z</time>
      </trkpt>
      <trkpt lat="46.84038" lon="6.55849">
        <ele>1177</ele>
        <time>2017-04-29T14:10:37.000Z</time>
      </trkpt>
      <trkpt lat="46.84036" lon="6.55866">
        <ele>1175.5999755859</ele>
        <time>2017-04-29T14:10:38.000Z</time>
      </trkpt>
      <trkpt lat="46.84035" lon="6.55873">
        <ele>1174.8000488281</ele>
        <time>2017-04-29T14:10:39.000Z</time>
      </trkpt>
      <trkpt lat="46.84031" lon="6.55879">
        <ele>1174.1999511719</ele>
        <time>2017-04-29T14:10:40.000Z</time>
      </trkpt>
      <trkpt lat="46.84023" lon="6.55887">
        <ele>1173.8000488281</ele>
        <time>2017-04-29T14:10:42.000Z</time>
      </trkpt>
      <trkpt lat="46.84023" lon="6.55887">
        <ele>1173</ele>
        <time>2017-04-29T14:10:43.000Z</time>
      </trkpt>
      <trkpt lat="46.84014" lon="6.55892">
        <ele>1172.5999755859</ele>
        <time>2017-04-29T14:10:44.000Z</time>
      </trkpt>
      <trkpt lat="46.8401" lon="6.55893">
        <ele>1172.5999755859</ele>
        <time>2017-04-29T14:10:46.000Z</time>
      </trkpt>
      <trkpt lat="46.84009" lon="6.55895">
        <ele>1173.1999511719</ele>
        <time>2017-04-29T14:10:52.000Z</time>
      </trkpt>
      <trkpt lat="46.84008" lon="6.55896">
        <ele>1173</ele>
        <time>2017-04-29T14:10:56.000Z</time>
      </trkpt>
      <trkpt lat="46.84006" lon="6.55897">
        <ele>1172.8000488281</ele>
        <time>2017-04-29T14:10:58.000Z</time>
      </trkpt>
      <trkpt lat="46.84004" lon="6.55896">
        <ele>1172.5999755859</ele>
        <time>2017-04-29T14:10:59.000Z</time>
      </trkpt>
      <trkpt lat="46.83987" lon="6.55887">
        <ele>1172.1999511719</ele>
        <time>2017-04-29T14:11:06.000Z</time>
      </trkpt>
      <trkpt lat="46.83969" lon="6.55884">
        <ele>1172.8000488281</ele>
        <time>2017-04-29T14:11:13.000Z</time>
      </trkpt>
      <trkpt lat="46.83938" lon="6.55879">
        <ele>1173.4000244141</ele>
        <time>2017-04-29T14:11:22.000Z</time>
      </trkpt>
      <trkpt lat="46.83918" lon="6.5587">
        <ele>1173.8000488281</ele>
        <time>2017-04-29T14:11:29.000Z</time>
      </trkpt>
      <trkpt lat="46.83916" lon="6.55867">
        <ele>1174</ele>
        <time>2017-04-29T14:11:30.000Z</time>
      </trkpt>
      <trkpt lat="46.83911" lon="6.55862">
        <ele>1174</ele>
        <time>2017-04-29T14:11:32.000Z</time>
      </trkpt>
      <trkpt lat="46.83904" lon="6.5586">
        <ele>1173.8000488281</ele>
        <time>2017-04-29T14:11:34.000Z</time>
      </trkpt>
      <trkpt lat="46.83897" lon="6.55857">
        <ele>1173.5999755859</ele>
        <time>2017-04-29T14:11:36.000Z</time>
      </trkpt>
      <trkpt lat="46.8388" lon="6.55849">
        <ele>1173</ele>
        <time>2017-04-29T14:11:40.000Z</time>
      </trkpt>
      <trkpt lat="46.83872" lon="6.55846">
        <ele>1172.8000488281</ele>
        <time>2017-04-29T14:11:42.000Z</time>
      </trkpt>
      <trkpt lat="46.83863" lon="6.55843">
        <ele>1172.1999511719</ele>
        <time>2017-04-29T14:11:44.000Z</time>
      </trkpt>
      <trkpt lat="46.83856" lon="6.5584">
        <ele>1171.4000244141</ele>
        <time>2017-04-29T14:11:46.000Z</time>
      </trkpt>
      <trkpt lat="46.83828" lon="6.55828">
        <ele>1171</ele>
        <time>2017-04-29T14:11:53.000Z</time>
      </trkpt>
      <trkpt lat="46.83791" lon="6.55813">
        <ele>1171.1999511719</ele>
        <time>2017-04-29T14:12:02.000Z</time>
      </trkpt>
      <trkpt lat="46.83775" lon="6.55807">
        <ele>1170.1999511719</ele>
        <time>2017-04-29T14:12:06.000Z</time>
      </trkpt>
      <trkpt lat="46.83761" lon="6.558">
        <ele>1169.8000488281</ele>
        <time>2017-04-29T14:12:10.000Z</time>
      </trkpt>
      <trkpt lat="46.83743" lon="6.55794">
        <ele>1169</ele>
        <time>2017-04-29T14:12:16.000Z</time>
      </trkpt>
      <trkpt lat="46.83718" lon="6.55784">
        <ele>1169.5999755859</ele>
        <time>2017-04-29T14:12:24.000Z</time>
      </trkpt>
      <trkpt lat="46.83711" lon="6.5578">
        <ele>1169.4000244141</ele>
        <time>2017-04-29T14:12:27.000Z</time>
      </trkpt>
      <trkpt lat="46.83679" lon="6.55765">
        <ele>1169.1999511719</ele>
        <time>2017-04-29T14:12:35.000Z</time>
      </trkpt>
      <trkpt lat="46.83661" lon="6.55759">
        <ele>1168.5999755859</ele>
        <time>2017-04-29T14:12:41.000Z</time>
      </trkpt>
      <trkpt lat="46.83648" lon="6.55747">
        <ele>1169</ele>
        <time>2017-04-29T14:12:46.000Z</time>
      </trkpt>
      <trkpt lat="46.83636" lon="6.55731">
        <ele>1168.1999511719</ele>
        <time>2017-04-29T14:12:50.000Z</time>
      </trkpt>
      <trkpt lat="46.83633" lon="6.55726">
        <ele>1167.8000488281</ele>
        <time>2017-04-29T14:12:51.000Z</time>
      </trkpt>
      <trkpt lat="46.83631" lon="6.55719">
        <ele>1167.5999755859</ele>
        <time>2017-04-29T14:12:52.000Z</time>
      </trkpt>
      <trkpt lat="46.83628" lon="6.55705">
        <ele>1167</ele>
        <time>2017-04-29T14:12:54.000Z</time>
      </trkpt>
      <trkpt lat="46.83627" lon="6.55688">
        <ele>1166.5999755859</ele>
        <time>2017-04-29T14:12:56.000Z</time>
      </trkpt>
      <trkpt lat="46.83627" lon="6.55679">
        <ele>1166</ele>
        <time>2017-04-29T14:12:57.000Z</time>
      </trkpt>
      <trkpt lat="46.83628" lon="6.55662">
        <ele>1165.4000244141</ele>
        <time>2017-04-29T14:12:59.000Z</time>
      </trkpt>
      <trkpt lat="46.83629" lon="6.55655">
        <ele>1165</ele>
        <time>2017-04-29T14:13:01.000Z</time>
      </trkpt>
      <trkpt lat="46.8363" lon="6.5563">
        <ele>1164.8000488281</ele>
        <time>2017-04-29T14:13:04.000Z</time>
      </trkpt>
      <trkpt lat="46.83626" lon="6.5562">
        <ele>1165</ele>
        <time>2017-04-29T14:13:06.000Z</time>
      </trkpt>
      <trkpt lat="46.83626" lon="6.5562">
        <ele>1165</ele>
        <time>2017-04-29T14:13:07.000Z</time>
      </trkpt>
      <trkpt lat="46.83619" lon="6.55612">
        <ele>1165</ele>
        <time>2017-04-29T14:13:08.000Z</time>
      </trkpt>
      <trkpt lat="46.83606" lon="6.55597">
        <ele>1164</ele>
        <time>2017-04-29T14:13:12.000Z</time>
      </trkpt>
      <trkpt lat="46.83585" lon="6.55571">
        <ele>1163.1999511719</ele>
        <time>2017-04-29T14:13:18.000Z</time>
      </trkpt>
      <trkpt lat="46.83574" lon="6.55559">
        <ele>1162.8000488281</ele>
        <time>2017-04-29T14:13:21.000Z</time>
      </trkpt>
      <trkpt lat="46.83564" lon="6.5555">
        <ele>1162.1999511719</ele>
        <time>2017-04-29T14:13:24.000Z</time>
      </trkpt>
      <trkpt lat="46.83546" lon="6.55535">
        <ele>1162.5999755859</ele>
        <time>2017-04-29T14:13:31.000Z</time>
      </trkpt>
      <trkpt lat="46.83528" lon="6.55523">
        <ele>1162.8000488281</ele>
        <time>2017-04-29T14:13:36.000Z</time>
      </trkpt>
      <trkpt lat="46.83507" lon="6.55505">
        <ele>1163</ele>
        <time>2017-04-29T14:13:43.000Z</time>
      </trkpt>
      <trkpt lat="46.83484" lon="6.55487">
        <ele>1163.1999511719</ele>
        <time>2017-04-29T14:13:50.000Z</time>
      </trkpt>
      <trkpt lat="46.83463" lon="6.55472">
        <ele>1161.4000244141</ele>
        <time>2017-04-29T14:13:55.000Z</time>
      </trkpt>
      <trkpt lat="46.83458" lon="6.55469">
        <ele>1160.5999755859</ele>
        <time>2017-04-29T14:13:56.000Z</time>
      </trkpt>
      <trkpt lat="46.83458" lon="6.55469">
        <ele>1160.1999511719</ele>
        <time>2017-04-29T14:13:57.000Z</time>
      </trkpt>
      <trkpt lat="46.83448" lon="6.55461">
        <ele>1159.8000488281</ele>
        <time>2017-04-29T14:13:58.000Z</time>
      </trkpt>
      <trkpt lat="46.83439" lon="6.55452">
        <ele>1159</ele>
        <time>2017-04-29T14:14:00.000Z</time>
      </trkpt>
      <trkpt lat="46.83435" lon="6.55447">
        <ele>1158.8000488281</ele>
        <time>2017-04-29T14:14:01.000Z</time>
      </trkpt>
      <trkpt lat="46.83425" lon="6.55433">
        <ele>1158.8000488281</ele>
        <time>2017-04-29T14:14:04.000Z</time>
      </trkpt>
      <trkpt lat="46.83422" lon="6.55423">
        <ele>1159.1999511719</ele>
        <time>2017-04-29T14:14:06.000Z</time>
      </trkpt>
      <trkpt lat="46.83421" lon="6.5542">
        <ele>1159.4000244141</ele>
        <time>2017-04-29T14:14:07.000Z</time>
      </trkpt>
      <trkpt lat="46.83415" lon="6.55409">
        <ele>1159.5999755859</ele>
        <time>2017-04-29T14:14:10.000Z</time>
      </trkpt>
      <trkpt lat="46.83414" lon="6.55404">
        <ele>1160</ele>
        <time>2017-04-29T14:14:11.000Z</time>
      </trkpt>
      <trkpt lat="46.83408" lon="6.55381">
        <ele>1160.4000244141</ele>
        <time>2017-04-29T14:14:17.000Z</time>
      </trkpt>
      <trkpt lat="46.83396" lon="6.55356">
        <ele>1160.5999755859</ele>
        <time>2017-04-29T14:14:24.000Z</time>
      </trkpt>
      <trkpt lat="46.8339" lon="6.55348">
        <ele>1161</ele>
        <time>2017-04-29T14:14:27.000Z</time>
      </trkpt>
      <trkpt lat="46.83387" lon="6.55342">
        <ele>1161.4000244141</ele>
        <time>2017-04-29T14:14:29.000Z</time>
      </trkpt>
      <trkpt lat="46.8338" lon="6.5532">
        <ele>1162.1999511719</ele>
        <time>2017-04-29T14:14:35.000Z</time>
      </trkpt>
      <trkpt lat="46.83379" lon="6.55316">
        <ele>1162.4000244141</ele>
        <time>2017-04-29T14:14:36.000Z</time>
      </trkpt>
      <trkpt lat="46.83375" lon="6.55294">
        <ele>1162.8000488281</ele>
        <time>2017-04-29T14:14:42.000Z</time>
      </trkpt>
      <trkpt lat="46.83374" lon="6.55287">
        <ele>1163.1999511719</ele>
        <time>2017-04-29T14:14:44.000Z</time>
      </trkpt>
      <trkpt lat="46.83374" lon="6.55263">
        <ele>1163.8000488281</ele>
        <time>2017-04-29T14:14:50.000Z</time>
      </trkpt>
      <trkpt lat="46.83375" lon="6.55238">
        <ele>1163.5999755859</ele>
        <time>2017-04-29T14:14:56.000Z</time>
      </trkpt>
      <trkpt lat="46.83379" lon="6.55221">
        <ele>1163.8000488281</ele>
        <time>2017-04-29T14:15:01.000Z</time>
      </trkpt>
      <trkpt lat="46.83379" lon="6.55215">
        <ele>1164</ele>
        <time>2017-04-29T14:15:03.000Z</time>
      </trkpt>
      <trkpt lat="46.83378" lon="6.55199">
        <ele>1164.8000488281</ele>
        <time>2017-04-29T14:15:07.000Z</time>
      </trkpt>
      <trkpt lat="46.83375" lon="6.55186">
        <ele>1165.1999511719</ele>
        <time>2017-04-29T14:15:10.000Z</time>
      </trkpt>
      <trkpt lat="46.83371" lon="6.55179">
        <ele>1165.1999511719</ele>
        <time>2017-04-29T14:15:12.000Z</time>
      </trkpt>
      <trkpt lat="46.83364" lon="6.55166">
        <ele>1165</ele>
        <time>2017-04-29T14:15:17.000Z</time>
      </trkpt>
      <trkpt lat="46.83352" lon="6.55152">
        <ele>1166.4000244141</ele>
        <time>2017-04-29T14:15:24.000Z</time>
      </trkpt>
      <trkpt lat="46.8335" lon="6.55151">
        <ele>1166.1999511719</ele>
        <time>2017-04-29T14:15:25.000Z</time>
      </trkpt>
      <trkpt lat="46.83335" lon="6.55136">
        <ele>1167</ele>
        <time>2017-04-29T14:15:33.000Z</time>
      </trkpt>
      <trkpt lat="46.83322" lon="6.55122">
        <ele>1167</ele>
        <time>2017-04-29T14:15:39.000Z</time>
      </trkpt>
      <trkpt lat="46.83301" lon="6.551">
        <ele>1166.8000488281</ele>
        <time>2017-04-29T14:15:47.000Z</time>
      </trkpt>
      <trkpt lat="46.83286" lon="6.55081">
        <ele>1166.8000488281</ele>
        <time>2017-04-29T14:15:54.000Z</time>
      </trkpt>
      <trkpt lat="46.83281" lon="6.55075">
        <ele>1166.8000488281</ele>
        <time>2017-04-29T14:15:56.000Z</time>
      </trkpt>
      <trkpt lat="46.83266" lon="6.55059">
        <ele>1165.5999755859</ele>
        <time>2017-04-29T14:16:02.000Z</time>
      </trkpt>
      <trkpt lat="46.83248" lon="6.55051">
        <ele>1166.1999511719</ele>
        <time>2017-04-29T14:16:08.000Z</time>
      </trkpt>
      <trkpt lat="46.83232" lon="6.55041">
        <ele>1166.1999511719</ele>
        <time>2017-04-29T14:16:13.000Z</time>
      </trkpt>
      <trkpt lat="46.83222" lon="6.5503">
        <ele>1165.4000244141</ele>
        <time>2017-04-29T14:16:16.000Z</time>
      </trkpt>
      <trkpt lat="46.83215" lon="6.5502">
        <ele>1165</ele>
        <time>2017-04-29T14:16:18.000Z</time>
      </trkpt>
      <trkpt lat="46.83215" lon="6.5502">
        <ele>1164.5999755859</ele>
        <time>2017-04-29T14:16:19.000Z</time>
      </trkpt>
      <trkpt lat="46.83195" lon="6.54997">
        <ele>1163.4000244141</ele>
        <time>2017-04-29T14:16:23.000Z</time>
      </trkpt>
      <trkpt lat="46.83192" lon="6.54991">
        <ele>1162.8000488281</ele>
        <time>2017-04-29T14:16:25.000Z</time>
      </trkpt>
      <trkpt lat="46.83187" lon="6.54967">
        <ele>1163.1999511719</ele>
        <time>2017-04-29T14:16:29.000Z</time>
      </trkpt>
      <trkpt lat="46.83179" lon="6.54941">
        <ele>1164</ele>
        <time>2017-04-29T14:16:35.000Z</time>
      </trkpt>
      <trkpt lat="46.8316" lon="6.5492">
        <ele>1163.4000244141</ele>
        <time>2017-04-29T14:16:42.000Z</time>
      </trkpt>
      <trkpt lat="46.83143" lon="6.54902">
        <ele>1164</ele>
        <time>2017-04-29T14:16:48.000Z</time>
      </trkpt>
      <trkpt lat="46.83132" lon="6.54882">
        <ele>1163.8000488281</ele>
        <time>2017-04-29T14:16:53.000Z</time>
      </trkpt>
      <trkpt lat="46.83131" lon="6.54877">
        <ele>1163.8000488281</ele>
        <time>2017-04-29T14:16:54.000Z</time>
      </trkpt>
      <trkpt lat="46.83122" lon="6.54841">
        <ele>1163.1999511719</ele>
        <time>2017-04-29T14:17:00.000Z</time>
      </trkpt>
      <trkpt lat="46.83119" lon="6.5481">
        <ele>1164</ele>
        <time>2017-04-29T14:17:06.000Z</time>
      </trkpt>
      <trkpt lat="46.83119" lon="6.54804">
        <ele>1164.1999511719</ele>
        <time>2017-04-29T14:17:07.000Z</time>
      </trkpt>
      <trkpt lat="46.8312" lon="6.54784">
        <ele>1164</ele>
        <time>2017-04-29T14:17:11.000Z</time>
      </trkpt>
      <trkpt lat="46.83122" lon="6.5477">
        <ele>1165.5999755859</ele>
        <time>2017-04-29T14:17:15.000Z</time>
      </trkpt>
      <trkpt lat="46.83122" lon="6.54767">
        <ele>1165.8000488281</ele>
        <time>2017-04-29T14:17:16.000Z</time>
      </trkpt>
      <trkpt lat="46.83121" lon="6.54764">
        <ele>1166.1999511719</ele>
        <time>2017-04-29T14:17:17.000Z</time>
      </trkpt>
      <trkpt lat="46.8312" lon="6.54757">
        <ele>1166.5999755859</ele>
        <time>2017-04-29T14:17:19.000Z</time>
      </trkpt>
      <trkpt lat="46.83116" lon="6.54746">
        <ele>1166.8000488281</ele>
        <time>2017-04-29T14:17:22.000Z</time>
      </trkpt>
      <trkpt lat="46.83114" lon="6.54733">
        <ele>1166.5999755859</ele>
        <time>2017-04-29T14:17:26.000Z</time>
      </trkpt>
      <trkpt lat="46.83111" lon="6.54726">
        <ele>1166.5999755859</ele>
        <time>2017-04-29T14:17:28.000Z</time>
      </trkpt>
      <trkpt lat="46.83105" lon="6.54705">
        <ele>1166.1999511719</ele>
        <time>2017-04-29T14:17:34.000Z</time>
      </trkpt>
      <trkpt lat="46.83098" lon="6.5468">
        <ele>1166.1999511719</ele>
        <time>2017-04-29T14:17:39.000Z</time>
      </trkpt>
      <trkpt lat="46.83096" lon="6.54674">
        <ele>1166.1999511719</ele>
        <time>2017-04-29T14:17:40.000Z</time>
      </trkpt>
      <trkpt lat="46.83092" lon="6.54662">
        <ele>1166</ele>
        <time>2017-04-29T14:17:42.000Z</time>
      </trkpt>
      <trkpt lat="46.83087" lon="6.54642">
        <ele>1165.8000488281</ele>
        <time>2017-04-29T14:17:45.000Z</time>
      </trkpt>
      <trkpt lat="46.83074" lon="6.54589">
        <ele>1165.5999755859</ele>
        <time>2017-04-29T14:17:53.000Z</time>
      </trkpt>
      <trkpt lat="46.83068" lon="6.54568">
        <ele>1165.1999511719</ele>
        <time>2017-04-29T14:17:56.000Z</time>
      </trkpt>
      <trkpt lat="46.83061" lon="6.54542">
        <ele>1164.5999755859</ele>
        <time>2017-04-29T14:18:00.000Z</time>
      </trkpt>
      <trkpt lat="46.8306" lon="6.54536">
        <ele>1164.5999755859</ele>
        <time>2017-04-29T14:18:01.000Z</time>
      </trkpt>
      <trkpt lat="46.8305" lon="6.54496">
        <ele>1165.5999755859</ele>
        <time>2017-04-29T14:18:08.000Z</time>
      </trkpt>
      <trkpt lat="46.83048" lon="6.54491">
        <ele>1165.4000244141</ele>
        <time>2017-04-29T14:18:09.000Z</time>
      </trkpt>
      <trkpt lat="46.83032" lon="6.54445">
        <ele>1165.4000244141</ele>
        <time>2017-04-29T14:18:16.000Z</time>
      </trkpt>
      <trkpt lat="46.83014" lon="6.54393">
        <ele>1164.4000244141</ele>
        <time>2017-04-29T14:18:23.000Z</time>
      </trkpt>
      <trkpt lat="46.83007" lon="6.5437">
        <ele>1163.8000488281</ele>
        <time>2017-04-29T14:18:26.000Z</time>
      </trkpt>
      <trkpt lat="46.83003" lon="6.54354">
        <ele>1163.8000488281</ele>
        <time>2017-04-29T14:18:28.000Z</time>
      </trkpt>
      <trkpt lat="46.83001" lon="6.54347">
        <ele>1163.8000488281</ele>
        <time>2017-04-29T14:18:29.000Z</time>
      </trkpt>
      <trkpt lat="46.82993" lon="6.5432">
        <ele>1163.8000488281</ele>
        <time>2017-04-29T14:18:33.000Z</time>
      </trkpt>
      <trkpt lat="46.8299" lon="6.54306">
        <ele>1163.1999511719</ele>
        <time>2017-04-29T14:18:35.000Z</time>
      </trkpt>
      <trkpt lat="46.82987" lon="6.54289">
        <ele>1163</ele>
        <time>2017-04-29T14:18:38.000Z</time>
      </trkpt>
      <trkpt lat="46.82987" lon="6.54276">
        <ele>1162.8000488281</ele>
        <time>2017-04-29T14:18:40.000Z</time>
      </trkpt>
      <trkpt lat="46.82988" lon="6.54269">
        <ele>1162.8000488281</ele>
        <time>2017-04-29T14:18:41.000Z</time>
      </trkpt>
      <trkpt lat="46.82989" lon="6.54262">
        <ele>1162.1999511719</ele>
        <time>2017-04-29T14:18:42.000Z</time>
      </trkpt>
      <trkpt lat="46.8299" lon="6.54253">
        <ele>1161.8000488281</ele>
        <time>2017-04-29T14:18:43.000Z</time>
      </trkpt>
      <trkpt lat="46.82993" lon="6.54244">
        <ele>1161.1999511719</ele>
        <time>2017-04-29T14:18:44.000Z</time>
      </trkpt>
      <trkpt lat="46.82995" lon="6.54237">
        <ele>1160.1999511719</ele>
        <time>2017-04-29T14:18:45.000Z</time>
      </trkpt>
      <trkpt lat="46.83001" lon="6.54228">
        <ele>1158.5999755859</ele>
        <time>2017-04-29T14:18:47.000Z</time>
      </trkpt>
      <trkpt lat="46.83009" lon="6.54216">
        <ele>1158</ele>
        <time>2017-04-29T14:18:51.000Z</time>
      </trkpt>
      <trkpt lat="46.83014" lon="6.54207">
        <ele>1159.4000244141</ele>
        <time>2017-04-29T14:18:54.000Z</time>
      </trkpt>
      <trkpt lat="46.83018" lon="6.54197">
        <ele>1160.4000244141</ele>
        <time>2017-04-29T14:18:57.000Z</time>
      </trkpt>
      <trkpt lat="46.83019" lon="6.54193">
        <ele>1160.5999755859</ele>
        <time>2017-04-29T14:18:58.000Z</time>
      </trkpt>
      <trkpt lat="46.8302" lon="6.54177">
        <ele>1160.8000488281</ele>
        <time>2017-04-29T14:19:02.000Z</time>
      </trkpt>
      <trkpt lat="46.83018" lon="6.54166">
        <ele>1160.8000488281</ele>
        <time>2017-04-29T14:19:04.000Z</time>
      </trkpt>
      <trkpt lat="46.83013" lon="6.54147">
        <ele>1160.4000244141</ele>
        <time>2017-04-29T14:19:07.000Z</time>
      </trkpt>
      <trkpt lat="46.83005" lon="6.54119">
        <ele>1159.4000244141</ele>
        <time>2017-04-29T14:19:11.000Z</time>
      </trkpt>
      <trkpt lat="46.83003" lon="6.54113">
        <ele>1159.1999511719</ele>
        <time>2017-04-29T14:19:12.000Z</time>
      </trkpt>
      <trkpt lat="46.83001" lon="6.54107">
        <ele>1159.1999511719</ele>
        <time>2017-04-29T14:19:13.000Z</time>
      </trkpt>
      <trkpt lat="46.82993" lon="6.5409">
        <ele>1158.5999755859</ele>
        <time>2017-04-29T14:19:16.000Z</time>
      </trkpt>
      <trkpt lat="46.8299" lon="6.54084">
        <ele>1158.1999511719</ele>
        <time>2017-04-29T14:19:17.000Z</time>
      </trkpt>
      <trkpt lat="46.82988" lon="6.54077">
        <ele>1158</ele>
        <time>2017-04-29T14:19:18.000Z</time>
      </trkpt>
      <trkpt lat="46.82984" lon="6.54065">
        <ele>1157.1999511719</ele>
        <time>2017-04-29T14:19:20.000Z</time>
      </trkpt>
      <trkpt lat="46.82979" lon="6.54046">
        <ele>1156.1999511719</ele>
        <time>2017-04-29T14:19:23.000Z</time>
      </trkpt>
      <trkpt lat="46.82975" lon="6.54034">
        <ele>1156</ele>
        <time>2017-04-29T14:19:25.000Z</time>
      </trkpt>
      <trkpt lat="46.82972" lon="6.54027">
        <ele>1155.5999755859</ele>
        <time>2017-04-29T14:19:26.000Z</time>
      </trkpt>
      <trkpt lat="46.82963" lon="6.53995">
        <ele>1155.8000488281</ele>
        <time>2017-04-29T14:19:31.000Z</time>
      </trkpt>
      <trkpt lat="46.82961" lon="6.53988">
        <ele>1155.5999755859</ele>
        <time>2017-04-29T14:19:32.000Z</time>
      </trkpt>
      <trkpt lat="46.82951" lon="6.53956">
        <ele>1154.8000488281</ele>
        <time>2017-04-29T14:19:37.000Z</time>
      </trkpt>
      <trkpt lat="46.82948" lon="6.53944">
        <ele>1154.4000244141</ele>
        <time>2017-04-29T14:19:39.000Z</time>
      </trkpt>
      <trkpt lat="46.82935" lon="6.53904">
        <ele>1176</ele>
        <time>2017-04-29T14:19:46.000Z</time>
      </trkpt>
      <trkpt lat="46.82927" lon="6.53879">
        <ele>1154.5999755859</ele>
        <time>2017-04-29T14:19:52.000Z</time>
      </trkpt>
      <trkpt lat="46.82921" lon="6.53855">
        <ele>1155.5999755859</ele>
        <time>2017-04-29T14:19:58.000Z</time>
      </trkpt>
      <trkpt lat="46.82917" lon="6.53845">
        <ele>1156</ele>
        <time>2017-04-29T14:20:01.000Z</time>
      </trkpt>
      <trkpt lat="46.82917" lon="6.53838">
        <ele>1155.8000488281</ele>
        <time>2017-04-29T14:20:03.000Z</time>
      </trkpt>
      <trkpt lat="46.82919" lon="6.53838">
        <ele>1155.8000488281</ele>
        <time>2017-04-29T14:20:04.000Z</time>
      </trkpt>
      <trkpt lat="46.82922" lon="6.53848">
        <ele>1155.8000488281</ele>
        <time>2017-04-29T14:20:08.000Z</time>
      </trkpt>
      <trkpt lat="46.82928" lon="6.53868">
        <ele>1155.4000244141</ele>
        <time>2017-04-29T14:20:13.000Z</time>
      </trkpt>
      <trkpt lat="46.82932" lon="6.53881">
        <ele>1154.5999755859</ele>
        <time>2017-04-29T14:20:16.000Z</time>
      </trkpt>
      <trkpt lat="46.82935" lon="6.53894">
        <ele>1154.4000244141</ele>
        <time>2017-04-29T14:20:20.000Z</time>
      </trkpt>
      <trkpt lat="46.82935" lon="6.53895">
        <ele>1155</ele>
        <time>2017-04-29T14:20:23.000Z</time>
      </trkpt>
    </trkseg>
  </trk>
</gpx>